DAL44 PHNL-KATL
Flight info
| Callsign | DAL44 |
|---|---|
| Flight time | 7h 58m |
| Altitude | 37000 |
| Route | MKK5 CODDY FITES R578 FOMAS/N0482F390 R578 FICKY C1177 SXC PKE/N0485F410 NABOB Q13 VERNO KA27S CNX CDS ADM GRAZN BAKRE OTB HAB RUSSA GLAVN2 |
| Aircraft | A359/H-SDE2E3GHIJ3J4J5LM1ORWXY/LB1D1 |
Departure
| Time | 2026-05-07 01:49 |
|---|---|
| Airport | Daniel K. Inouye International Airport (PHNL) |
Arrival
| Time | 2026-05-07 09:48 |
|---|---|
| Airport | Hartsfield Jackson Atlanta International Airport (KATL) |
| Time | Latitude | Longitude | Altitude | Speed | Heading |
|---|---|---|---|---|---|
| 2026-05-07 01:21 | 21.32941 | -157.91299 | 24 ft | 0 kts | 320° |
| 2026-05-07 01:36 | 21.32935 | -157.91293 | 24 ft | 4 kts | 320° |
| 2026-05-07 01:36 | 21.32914 | -157.91274 | 22 ft | 4 kts | 320° |
| 2026-05-07 01:36 | 21.32893 | -157.91255 | 25 ft | 4 kts | 320° |
| 2026-05-07 01:37 | 21.32875 | -157.91239 | 24 ft | 4 kts | 297° |
| 2026-05-07 01:37 | 21.32876 | -157.91221 | 25 ft | 4 kts | 219° |
| 2026-05-07 01:37 | 21.32896 | -157.91203 | 24 ft | 3 kts | 230° |
| 2026-05-07 01:37 | 21.32901 | -157.91197 | 25 ft | 0 kts | 231° |
| 2026-05-07 01:40 | 21.32896 | -157.91204 | 25 ft | 3 kts | 232° |
| 2026-05-07 01:41 | 21.32872 | -157.91237 | 25 ft | 8 kts | 232° |
| 2026-05-07 01:41 | 21.32825 | -157.91284 | 22 ft | 6 kts | 190° |
| 2026-05-07 01:41 | 21.32763 | -157.91294 | 19 ft | 12 kts | 190° |
| 2026-05-07 01:41 | 21.32658 | -157.91313 | 18 ft | 17 kts | 189° |
| 2026-05-07 01:42 | 21.32532 | -157.91335 | 15 ft | 19 kts | 189° |
| 2026-05-07 01:42 | 21.32398 | -157.91379 | 12 ft | 21 kts | 206° |
| 2026-05-07 01:42 | 21.32277 | -157.91474 | 13 ft | 15 kts | 223° |
| 2026-05-07 01:42 | 21.32231 | -157.91503 | 14 ft | 7 kts | 191° |
| 2026-05-07 01:43 | 21.32185 | -157.91490 | 15 ft | 7 kts | 152° |
| 2026-05-07 01:43 | 21.32139 | -157.91467 | 16 ft | 5 kts | 180° |
| 2026-05-07 01:43 | 21.32103 | -157.91498 | 18 ft | 9 kts | 228° |
| 2026-05-07 01:43 | 21.32049 | -157.91570 | 16 ft | 15 kts | 231° |
| 2026-05-07 01:44 | 21.31966 | -157.91655 | 21 ft | 16 kts | 217° |
| 2026-05-07 01:44 | 21.31881 | -157.91731 | 22 ft | 16 kts | 229° |
| 2026-05-07 01:44 | 21.31806 | -157.91830 | 23 ft | 18 kts | 234° |
| 2026-05-07 01:44 | 21.31730 | -157.91942 | 22 ft | 19 kts | 233° |
| 2026-05-07 01:45 | 21.31647 | -157.92061 | 17 ft | 21 kts | 232° |
| 2026-05-07 01:45 | 21.31560 | -157.92183 | 14 ft | 21 kts | 232° |
| 2026-05-07 01:45 | 21.31472 | -157.92306 | 14 ft | 21 kts | 232° |
| 2026-05-07 01:45 | 21.31380 | -157.92436 | 14 ft | 22 kts | 232° |
| 2026-05-07 01:46 | 21.31325 | -157.92514 | 16 ft | 0 kts | 233° |
| 2026-05-07 01:47 | 21.31312 | -157.92532 | 16 ft | 6 kts | 233° |
| 2026-05-07 01:47 | 21.31285 | -157.92582 | 16 ft | 8 kts | 260° |
| 2026-05-07 01:47 | 21.31315 | -157.92632 | 18 ft | 9 kts | 318° |
| 2026-05-07 01:48 | 21.31362 | -157.92674 | 23 ft | 10 kts | 322° |
| 2026-05-07 01:48 | 21.31421 | -157.92670 | 21 ft | 10 kts | 41° |
| 2026-05-07 01:48 | 21.31479 | -157.92593 | 17 ft | 16 kts | 52° |
| 2026-05-07 01:48 | 21.31586 | -157.92444 | 17 ft | 48 kts | 52° |
| 2026-05-07 01:49 | 21.31918 | -157.91975 | 20 ft | 108 kts | 52° |
| 2026-05-07 01:49 | 21.32474 | -157.91180 | 20 ft | 158 kts | 54° |
| 2026-05-07 01:49 | 21.33094 | -157.90231 | 586 ft | 153 kts | 52° |
| 2026-05-07 01:49 | 21.33542 | -157.89152 | 955 ft | 164 kts | 80° |
| 2026-05-07 01:50 | 21.33381 | -157.87956 | 1418 ft | 164 kts | 115° |
| 2026-05-07 01:50 | 21.32731 | -157.87028 | 2046 ft | 149 kts | 128° |
| 2026-05-07 01:50 | 21.32035 | -157.86175 | 2291 ft | 163 kts | 128° |
| 2026-05-07 01:50 | 21.31260 | -157.85177 | 2469 ft | 181 kts | 127° |
| 2026-05-07 01:51 | 21.30474 | -157.84108 | 2897 ft | 184 kts | 126° |
| 2026-05-07 01:51 | 21.29684 | -157.82967 | 3189 ft | 201 kts | 124° |
| 2026-05-07 01:51 | 21.28922 | -157.81579 | 3239 ft | 232 kts | 116° |
| 2026-05-07 01:51 | 21.28292 | -157.79842 | 3233 ft | 266 kts | 103° |
| 2026-05-07 01:52 | 21.27851 | -157.77842 | 3652 ft | 276 kts | 102° |
| 2026-05-07 01:52 | 21.27401 | -157.75845 | 4438 ft | 274 kts | 104° |
| 2026-05-07 01:52 | 21.26965 | -157.73849 | 5156 ft | 275 kts | 103° |
| 2026-05-07 01:52 | 21.26541 | -157.71840 | 5811 ft | 277 kts | 103° |
| 2026-05-07 01:53 | 21.26098 | -157.69807 | 6481 ft | 282 kts | 104° |
| 2026-05-07 01:53 | 21.25639 | -157.67750 | 7145 ft | 287 kts | 104° |
| 2026-05-07 01:53 | 21.25374 | -157.65603 | 7780 ft | 292 kts | 90° |
| 2026-05-07 01:53 | 21.25446 | -157.63453 | 8486 ft | 293 kts | 86° |
| 2026-05-07 01:54 | 21.25594 | -157.61251 | 9167 ft | 297 kts | 85° |
| 2026-05-07 01:54 | 21.25767 | -157.59020 | 9796 ft | 302 kts | 85° |
| 2026-05-07 01:54 | 21.25951 | -157.56758 | 10299 ft | 311 kts | 85° |
| 2026-05-07 01:54 | 21.26148 | -157.54387 | 10619 ft | 327 kts | 85° |
| 2026-05-07 01:55 | 21.26359 | -157.51894 | 10872 ft | 343 kts | 85° |
| 2026-05-07 01:55 | 21.26580 | -157.49293 | 11177 ft | 357 kts | 85° |
| 2026-05-07 01:55 | 21.26808 | -157.46624 | 11454 ft | 371 kts | 85° |
| 2026-05-07 01:55 | 21.27047 | -157.43818 | 11683 ft | 384 kts | 85° |
| 2026-05-07 01:56 | 21.27292 | -157.40928 | 12008 ft | 393 kts | 85° |
| 2026-05-07 01:56 | 21.27541 | -157.37988 | 12383 ft | 399 kts | 85° |
| 2026-05-07 01:56 | 21.27793 | -157.35006 | 12884 ft | 402 kts | 85° |
| 2026-05-07 01:56 | 21.28046 | -157.32006 | 13340 ft | 406 kts | 85° |
| 2026-05-07 01:57 | 21.28301 | -157.28981 | 13789 ft | 409 kts | 85° |
| 2026-05-07 01:57 | 21.28557 | -157.25931 | 14248 ft | 411 kts | 85° |
| 2026-05-07 01:57 | 21.28812 | -157.22891 | 14632 ft | 415 kts | 85° |
| 2026-05-07 01:57 | 21.29072 | -157.19795 | 15084 ft | 416 kts | 85° |
| 2026-05-07 01:58 | 21.29331 | -157.16697 | 15491 ft | 419 kts | 85° |
| 2026-05-07 01:58 | 21.29591 | -157.13573 | 15924 ft | 420 kts | 85° |
| 2026-05-07 01:58 | 21.29852 | -157.10436 | 16350 ft | 423 kts | 85° |
| 2026-05-07 01:58 | 21.30114 | -157.07275 | 16721 ft | 426 kts | 85° |
| 2026-05-07 01:59 | 21.30372 | -157.04154 | 17177 ft | 427 kts | 85° |
| 2026-05-07 01:59 | 21.30636 | -157.00966 | 17473 ft | 432 kts | 85° |
| 2026-05-07 01:59 | 21.30900 | -156.97753 | 17955 ft | 432 kts | 85° |
| 2026-05-07 01:59 | 21.31165 | -156.94537 | 18321 ft | 435 kts | 85° |
| 2026-05-07 02:00 | 21.31431 | -156.91294 | 18689 ft | 436 kts | 85° |
| 2026-05-07 02:00 | 21.31696 | -156.88048 | 19020 ft | 438 kts | 85° |
| 2026-05-07 02:00 | 21.31962 | -156.84783 | 19350 ft | 440 kts | 85° |
| 2026-05-07 02:00 | 21.32228 | -156.81520 | 19737 ft | 440 kts | 85° |
| 2026-05-07 02:01 | 21.32495 | -156.78228 | 20035 ft | 443 kts | 85° |
| 2026-05-07 02:01 | 21.32762 | -156.74932 | 20425 ft | 444 kts | 85° |
| 2026-05-07 02:01 | 21.33030 | -156.71618 | 20746 ft | 447 kts | 85° |
| 2026-05-07 02:01 | 21.33295 | -156.68327 | 21139 ft | 447 kts | 86° |
| 2026-05-07 02:02 | 21.33555 | -156.64994 | 21466 ft | 450 kts | 86° |
| 2026-05-07 02:02 | 21.33764 | -156.61641 | 21851 ft | 451 kts | 87° |
| 2026-05-07 02:02 | 21.33964 | -156.58271 | 22213 ft | 453 kts | 87° |
| 2026-05-07 02:02 | 21.34169 | -156.54882 | 22567 ft | 455 kts | 87° |
| 2026-05-07 02:03 | 21.34377 | -156.51489 | 22965 ft | 457 kts | 88° |
| 2026-05-07 02:03 | 21.34586 | -156.48081 | 23298 ft | 459 kts | 87° |
| 2026-05-07 02:03 | 21.34798 | -156.44658 | 23679 ft | 461 kts | 88° |
| 2026-05-07 02:03 | 21.35010 | -156.41218 | 23974 ft | 463 kts | 87° |
| 2026-05-07 02:04 | 21.35224 | -156.37757 | 24256 ft | 465 kts | 87° |
| 2026-05-07 02:04 | 21.35435 | -156.34320 | 24477 ft | 470 kts | 87° |
| 2026-05-07 02:04 | 21.35653 | -156.30771 | 24810 ft | 471 kts | 87° |
| 2026-05-07 02:04 | 21.35865 | -156.27296 | 25141 ft | 474 kts | 87° |
| 2026-05-07 02:05 | 21.36081 | -156.23760 | 25508 ft | 475 kts | 87° |
| 2026-05-07 02:05 | 21.36296 | -156.20217 | 25913 ft | 477 kts | 87° |
| 2026-05-07 02:05 | 21.36511 | -156.16654 | 26261 ft | 480 kts | 86° |
| 2026-05-07 02:05 | 21.36727 | -156.13080 | 26637 ft | 482 kts | 86° |
| 2026-05-07 02:06 | 21.36943 | -156.09475 | 26975 ft | 485 kts | 86° |
| 2026-05-07 02:06 | 21.37160 | -156.05853 | 27352 ft | 487 kts | 86° |
| 2026-05-07 02:06 | 21.37377 | -156.02213 | 27676 ft | 491 kts | 86° |
| 2026-05-07 02:06 | 21.37594 | -155.98558 | 28081 ft | 492 kts | 86° |
| 2026-05-07 02:07 | 21.37812 | -155.94881 | 28398 ft | 495 kts | 86° |
| 2026-05-07 02:07 | 21.38248 | -155.87485 | 29172 ft | 498 kts | 86° |
| 2026-05-07 02:07 | 21.38465 | -155.83765 | 29487 ft | 500 kts | 86° |
| 2026-05-07 02:08 | 21.38683 | -155.80025 | 29793 ft | 503 kts | 86° |
| 2026-05-07 02:08 | 21.38902 | -155.76268 | 30115 ft | 505 kts | 86° |
| 2026-05-07 02:08 | 21.39117 | -155.72546 | 30346 ft | 507 kts | 86° |
| 2026-05-07 02:08 | 21.39335 | -155.68754 | 30564 ft | 510 kts | 86° |
| 2026-05-07 02:09 | 21.39556 | -155.64903 | 30803 ft | 512 kts | 86° |
| 2026-05-07 02:09 | 21.39771 | -155.61141 | 31116 ft | 512 kts | 86° |
| 2026-05-07 02:09 | 21.39989 | -155.57328 | 31400 ft | 513 kts | 86° |
| 2026-05-07 02:09 | 21.40205 | -155.53508 | 31658 ft | 513 kts | 86° |
| 2026-05-07 02:10 | 21.40421 | -155.49683 | 31969 ft | 513 kts | 86° |
| 2026-05-07 02:10 | 21.40636 | -155.45860 | 32276 ft | 514 kts | 86° |
| 2026-05-07 02:10 | 21.40851 | -155.42034 | 32571 ft | 514 kts | 86° |
| 2026-05-07 02:10 | 21.41064 | -155.38205 | 32860 ft | 514 kts | 86° |
| 2026-05-07 02:11 | 21.41278 | -155.34370 | 33158 ft | 514 kts | 86° |
| 2026-05-07 02:11 | 21.41490 | -155.30536 | 33439 ft | 514 kts | 86° |
| 2026-05-07 02:11 | 21.41630 | -155.28002 | 33611 ft | 515 kts | 86° |
| 2026-05-07 02:11 | 21.41841 | -155.24157 | 33773 ft | 517 kts | 86° |
| 2026-05-07 02:12 | 21.42052 | -155.20296 | 34035 ft | 517 kts | 86° |
| 2026-05-07 02:12 | 21.42262 | -155.16451 | 34288 ft | 517 kts | 86° |
| 2026-05-07 02:12 | 21.42472 | -155.12595 | 34532 ft | 517 kts | 86° |
| 2026-05-07 02:12 | 21.42667 | -155.08750 | 34772 ft | 516 kts | 87° |
| 2026-05-07 02:13 | 21.42837 | -155.04899 | 35010 ft | 516 kts | 87° |
| 2026-05-07 02:13 | 21.42996 | -155.01057 | 35233 ft | 516 kts | 87° |
| 2026-05-07 02:13 | 21.43154 | -154.97201 | 35455 ft | 516 kts | 87° |
| 2026-05-07 02:13 | 21.43314 | -154.93350 | 35618 ft | 517 kts | 87° |
| 2026-05-07 02:14 | 21.43476 | -154.89498 | 35904 ft | 515 kts | 87° |
| 2026-05-07 02:14 | 21.43638 | -154.85662 | 36164 ft | 513 kts | 87° |
| 2026-05-07 02:14 | 21.43802 | -154.81833 | 36345 ft | 514 kts | 87° |
| 2026-05-07 02:14 | 21.43965 | -154.78009 | 36513 ft | 514 kts | 87° |
| 2026-05-07 02:15 | 21.44128 | -154.74175 | 36695 ft | 514 kts | 87° |
| 2026-05-07 02:15 | 21.44290 | -154.70342 | 36873 ft | 514 kts | 87° |
| 2026-05-07 02:15 | 21.44449 | -154.66563 | 37024 ft | 515 kts | 87° |
| 2026-05-07 02:15 | 21.44610 | -154.62717 | 37053 ft | 518 kts | 87° |
| 2026-05-07 02:16 | 21.44930 | -154.54978 | 37051 ft | 518 kts | 87° |
| 2026-05-07 02:16 | 21.45247 | -154.47245 | 37050 ft | 518 kts | 87° |
| 2026-05-07 02:17 | 21.45559 | -154.39518 | 37053 ft | 518 kts | 87° |
| 2026-05-07 02:17 | 21.45868 | -154.31789 | 37053 ft | 519 kts | 87° |
| 2026-05-07 02:18 | 21.46175 | -154.24026 | 37054 ft | 520 kts | 87° |
| 2026-05-07 02:18 | 21.46477 | -154.16311 | 37053 ft | 520 kts | 87° |
| 2026-05-07 02:19 | 21.46776 | -154.08545 | 37051 ft | 520 kts | 87° |
| 2026-05-07 02:19 | 21.47073 | -154.00765 | 37053 ft | 521 kts | 88° |
| 2026-05-07 02:20 | 21.47366 | -153.92984 | 37053 ft | 523 kts | 88° |
| 2026-05-07 02:20 | 21.47657 | -153.85181 | 37052 ft | 523 kts | 88° |
| 2026-05-07 02:21 | 21.47942 | -153.77405 | 37053 ft | 523 kts | 88° |
| 2026-05-07 02:21 | 21.48226 | -153.69591 | 37050 ft | 524 kts | 88° |
| 2026-05-07 02:22 | 21.48507 | -153.61751 | 37053 ft | 526 kts | 88° |
| 2026-05-07 02:22 | 21.48783 | -153.53941 | 37054 ft | 527 kts | 88° |
| 2026-05-07 02:23 | 21.49057 | -153.46081 | 37057 ft | 526 kts | 88° |
| 2026-05-07 02:23 | 21.49326 | -153.38249 | 37052 ft | 524 kts | 88° |
| 2026-05-07 02:24 | 21.49592 | -153.30417 | 37052 ft | 525 kts | 88° |
| 2026-05-07 02:24 | 21.49855 | -153.22586 | 37051 ft | 525 kts | 88° |
| 2026-05-07 02:25 | 21.50112 | -153.14790 | 37051 ft | 525 kts | 88° |
| 2026-05-07 02:25 | 21.50367 | -153.06950 | 37051 ft | 526 kts | 88° |
| 2026-05-07 02:26 | 21.50620 | -152.99085 | 37052 ft | 527 kts | 88° |
| 2026-05-07 02:26 | 21.50868 | -152.91209 | 37051 ft | 527 kts | 88° |
| 2026-05-07 02:27 | 21.51112 | -152.83378 | 37050 ft | 527 kts | 88° |
| 2026-05-07 02:27 | 21.51354 | -152.75494 | 37051 ft | 530 kts | 88° |
| 2026-05-07 02:28 | 21.51594 | -152.67545 | 37051 ft | 532 kts | 88° |
| 2026-05-07 02:28 | 21.51830 | -152.59601 | 37051 ft | 532 kts | 88° |
| 2026-05-07 02:29 | 21.52062 | -152.51668 | 37049 ft | 532 kts | 88° |
| 2026-05-07 02:29 | 21.52292 | -152.43701 | 37050 ft | 534 kts | 88° |
| 2026-05-07 02:30 | 21.52518 | -152.35719 | 37053 ft | 535 kts | 88° |
| 2026-05-07 02:30 | 21.52739 | -152.27767 | 37053 ft | 535 kts | 88° |
| 2026-05-07 02:31 | 21.52958 | -152.19770 | 37050 ft | 536 kts | 88° |
| 2026-05-07 02:31 | 21.53173 | -152.11743 | 37054 ft | 538 kts | 89° |
| 2026-05-07 02:32 | 21.53385 | -152.03691 | 37063 ft | 538 kts | 88° |
| 2026-05-07 02:32 | 21.53592 | -151.95700 | 37051 ft | 532 kts | 88° |
| 2026-05-07 02:33 | 21.53795 | -151.87760 | 37054 ft | 532 kts | 88° |
| 2026-05-07 02:33 | 21.53992 | -151.79845 | 37056 ft | 534 kts | 88° |
| 2026-05-07 02:34 | 21.54188 | -151.71870 | 37055 ft | 534 kts | 88° |
| 2026-05-07 02:34 | 21.54380 | -151.63884 | 37056 ft | 534 kts | 88° |
| 2026-05-07 02:35 | 21.54568 | -151.55900 | 37055 ft | 534 kts | 88° |
| 2026-05-07 02:35 | 21.55127 | -151.47954 | 37057 ft | 533 kts | 77° |
| 2026-05-07 02:36 | 21.56155 | -151.44137 | 37058 ft | 530 kts | 66° |
| 2026-05-07 02:36 | 21.57633 | -151.40524 | 37058 ft | 529 kts | 63° |
| 2026-05-07 02:36 | 21.60902 | -151.33434 | 37058 ft | 529 kts | 60° |
| 2026-05-07 02:37 | 21.64275 | -151.26379 | 37059 ft | 531 kts | 60° |
| 2026-05-07 02:37 | 21.67615 | -151.19338 | 37066 ft | 532 kts | 61° |
| 2026-05-07 02:38 | 21.70937 | -151.12263 | 37058 ft | 528 kts | 61° |
| 2026-05-07 02:38 | 21.74234 | -151.05211 | 37061 ft | 527 kts | 61° |
| 2026-05-07 02:39 | 21.77531 | -150.98150 | 37062 ft | 529 kts | 61° |
| 2026-05-07 02:39 | 21.80833 | -150.91074 | 37061 ft | 530 kts | 61° |
| 2026-05-07 02:40 | 21.84141 | -150.83973 | 37062 ft | 530 kts | 61° |
| 2026-05-07 02:40 | 21.87442 | -150.76877 | 37073 ft | 530 kts | 61° |
| 2026-05-07 02:41 | 21.90712 | -150.69837 | 37063 ft | 527 kts | 61° |
| 2026-05-07 02:41 | 21.93990 | -150.62772 | 37067 ft | 527 kts | 61° |
| 2026-05-07 02:42 | 21.97268 | -150.55698 | 37067 ft | 527 kts | 61° |
| 2026-05-07 02:42 | 22.00535 | -150.48636 | 37068 ft | 527 kts | 61° |
| 2026-05-07 02:43 | 22.03800 | -150.41571 | 37067 ft | 528 kts | 61° |
| 2026-05-07 02:43 | 22.07076 | -150.34473 | 37067 ft | 528 kts | 61° |
| 2026-05-07 02:44 | 22.10322 | -150.27426 | 37070 ft | 527 kts | 61° |
| 2026-05-07 02:44 | 22.13578 | -150.20347 | 37064 ft | 526 kts | 61° |
| 2026-05-07 02:45 | 22.16826 | -150.13285 | 37073 ft | 526 kts | 61° |
| 2026-05-07 02:45 | 22.20080 | -150.06193 | 37070 ft | 527 kts | 61° |
| 2026-05-07 02:46 | 22.23330 | -149.99097 | 37067 ft | 527 kts | 61° |
| 2026-05-07 02:46 | 22.26586 | -149.91980 | 37075 ft | 527 kts | 61° |
| 2026-05-07 02:47 | 22.29812 | -149.84918 | 37068 ft | 528 kts | 61° |
| 2026-05-07 02:47 | 22.33061 | -149.77799 | 37077 ft | 529 kts | 61° |
| 2026-05-07 02:48 | 22.36318 | -149.70650 | 37078 ft | 529 kts | 61° |
| 2026-05-07 02:48 | 22.39569 | -149.63502 | 37078 ft | 529 kts | 61° |
| 2026-05-07 02:49 | 22.42793 | -149.56407 | 37070 ft | 530 kts | 61° |
| 2026-05-07 02:49 | 22.46049 | -149.49229 | 37079 ft | 531 kts | 61° |
| 2026-05-07 02:50 | 22.49294 | -149.42066 | 37078 ft | 529 kts | 61° |
| 2026-05-07 02:50 | 22.52525 | -149.34921 | 37079 ft | 528 kts | 61° |
| 2026-05-07 02:51 | 22.55754 | -149.27772 | 37084 ft | 528 kts | 61° |
| 2026-05-07 02:51 | 22.58983 | -149.20614 | 37075 ft | 529 kts | 61° |
| 2026-05-07 02:52 | 22.62188 | -149.13498 | 37083 ft | 529 kts | 62° |
| 2026-05-07 02:52 | 22.65412 | -149.06328 | 37084 ft | 529 kts | 62° |
| 2026-05-07 02:53 | 22.68627 | -148.99168 | 37086 ft | 527 kts | 61° |
| 2026-05-07 02:53 | 22.71834 | -148.92016 | 37084 ft | 527 kts | 62° |
| 2026-05-07 02:54 | 22.75014 | -148.84916 | 37083 ft | 527 kts | 62° |
| 2026-05-07 02:54 | 22.78214 | -148.77760 | 37085 ft | 527 kts | 62° |
| 2026-05-07 02:55 | 22.81411 | -148.70597 | 37083 ft | 527 kts | 62° |
| 2026-05-07 02:55 | 22.84605 | -148.63433 | 37101 ft | 527 kts | 62° |
| 2026-05-07 02:56 | 22.87764 | -148.56336 | 37095 ft | 525 kts | 62° |
| 2026-05-07 02:56 | 22.90941 | -148.49187 | 37095 ft | 524 kts | 62° |
| 2026-05-07 02:57 | 22.94105 | -148.42058 | 37095 ft | 525 kts | 62° |
| 2026-05-07 02:57 | 22.97274 | -148.34910 | 37100 ft | 525 kts | 62° |
| 2026-05-07 02:58 | 23.00433 | -148.27771 | 37093 ft | 525 kts | 62° |
| 2026-05-07 02:58 | 23.03575 | -148.20661 | 37092 ft | 525 kts | 62° |
| 2026-05-07 02:59 | 23.06728 | -148.13513 | 37092 ft | 523 kts | 62° |
| 2026-05-07 02:59 | 23.09873 | -148.06374 | 37091 ft | 523 kts | 62° |
| 2026-05-07 03:00 | 23.12483 | -148.00442 | 37104 ft | 523 kts | 62° |
| 2026-05-07 03:00 | 23.16132 | -147.92138 | 37089 ft | 523 kts | 62° |
| 2026-05-07 03:01 | 23.18762 | -147.86142 | 37087 ft | 524 kts | 62° |
| 2026-05-07 03:01 | 23.21881 | -147.79022 | 37097 ft | 524 kts | 62° |
| 2026-05-07 03:02 | 23.25006 | -147.71875 | 37099 ft | 523 kts | 62° |
| 2026-05-07 03:02 | 23.28125 | -147.64734 | 37097 ft | 522 kts | 62° |
| 2026-05-07 03:03 | 23.31241 | -147.57588 | 37097 ft | 523 kts | 62° |
| 2026-05-07 03:03 | 23.34358 | -147.50431 | 37097 ft | 523 kts | 62° |
| 2026-05-07 03:04 | 23.37453 | -147.43311 | 37100 ft | 523 kts | 62° |
| 2026-05-07 03:04 | 23.40580 | -147.36109 | 37099 ft | 521 kts | 62° |
| 2026-05-07 03:05 | 23.43652 | -147.29021 | 37097 ft | 521 kts | 62° |
| 2026-05-07 03:05 | 23.46743 | -147.21879 | 37097 ft | 521 kts | 62° |
| 2026-05-07 03:06 | 23.49827 | -147.14742 | 37102 ft | 521 kts | 62° |
| 2026-05-07 03:06 | 23.52911 | -147.07595 | 37103 ft | 521 kts | 62° |
| 2026-05-07 03:07 | 23.55996 | -147.00435 | 37099 ft | 522 kts | 62° |
| 2026-05-07 03:07 | 23.59071 | -146.93285 | 37101 ft | 519 kts | 62° |
| 2026-05-07 03:08 | 23.62132 | -146.86157 | 37101 ft | 518 kts | 62° |
| 2026-05-07 03:08 | 23.65188 | -146.79032 | 37101 ft | 519 kts | 63° |
| 2026-05-07 03:09 | 23.68227 | -146.71936 | 37106 ft | 519 kts | 63° |
| 2026-05-07 03:09 | 23.71298 | -146.64751 | 37104 ft | 519 kts | 63° |
| 2026-05-07 03:10 | 23.74348 | -146.57608 | 37113 ft | 519 kts | 63° |
| 2026-05-07 03:10 | 23.77364 | -146.50529 | 37109 ft | 518 kts | 63° |
| 2026-05-07 03:11 | 23.80399 | -146.43397 | 37107 ft | 517 kts | 63° |
| 2026-05-07 03:11 | 23.83425 | -146.36277 | 37103 ft | 517 kts | 63° |
| 2026-05-07 03:12 | 23.86453 | -146.29139 | 37106 ft | 517 kts | 63° |
| 2026-05-07 03:12 | 23.89483 | -146.21987 | 37108 ft | 518 kts | 63° |
| 2026-05-07 03:13 | 23.92512 | -146.14825 | 37111 ft | 517 kts | 63° |
| 2026-05-07 03:13 | 23.95517 | -146.07707 | 37113 ft | 515 kts | 63° |
| 2026-05-07 03:14 | 23.98514 | -146.00598 | 37111 ft | 515 kts | 63° |
| 2026-05-07 03:15 | 24.02993 | -145.89953 | 37115 ft | 515 kts | 63° |
| 2026-05-07 03:15 | 24.05983 | -145.82835 | 37115 ft | 515 kts | 63° |
| 2026-05-07 03:16 | 24.08975 | -145.75699 | 37117 ft | 515 kts | 63° |
| 2026-05-07 03:16 | 24.11965 | -145.68557 | 37116 ft | 516 kts | 63° |
| 2026-05-07 03:17 | 24.14934 | -145.61455 | 37118 ft | 516 kts | 63° |
| 2026-05-07 03:17 | 24.17916 | -145.54308 | 37117 ft | 516 kts | 63° |
| 2026-05-07 03:18 | 24.20897 | -145.47155 | 37124 ft | 516 kts | 63° |
| 2026-05-07 03:18 | 24.23877 | -145.39992 | 37129 ft | 517 kts | 63° |
| 2026-05-07 03:19 | 24.26848 | -145.32838 | 37120 ft | 515 kts | 63° |
| 2026-05-07 03:19 | 24.29815 | -145.25681 | 37117 ft | 515 kts | 63° |
| 2026-05-07 03:20 | 24.32775 | -145.18533 | 37127 ft | 515 kts | 64° |
| 2026-05-07 03:20 | 24.35733 | -145.11378 | 37122 ft | 515 kts | 64° |
| 2026-05-07 03:21 | 24.38675 | -145.04248 | 37127 ft | 515 kts | 64° |
| 2026-05-07 03:21 | 24.41625 | -144.97092 | 37127 ft | 514 kts | 64° |
| 2026-05-07 03:22 | 24.44571 | -144.89943 | 37132 ft | 513 kts | 64° |
| 2026-05-07 03:22 | 24.47513 | -144.82796 | 37129 ft | 513 kts | 64° |
| 2026-05-07 03:23 | 24.50450 | -144.75646 | 37129 ft | 513 kts | 64° |
| 2026-05-07 03:23 | 24.53391 | -144.68477 | 37132 ft | 514 kts | 64° |
| 2026-05-07 03:24 | 24.56309 | -144.61354 | 37132 ft | 513 kts | 64° |
| 2026-05-07 03:24 | 24.59227 | -144.54215 | 37134 ft | 512 kts | 64° |
| 2026-05-07 03:25 | 24.62141 | -144.47077 | 37385 ft | 512 kts | 64° |
| 2026-05-07 03:25 | 24.63604 | -144.43488 | 37543 ft | 513 kts | 64° |
| 2026-05-07 03:25 | 24.65063 | -144.39908 | 37695 ft | 513 kts | 64° |
| 2026-05-07 03:25 | 24.66527 | -144.36313 | 37862 ft | 513 kts | 64° |
| 2026-05-07 03:26 | 24.67982 | -144.32734 | 37995 ft | 514 kts | 64° |
| 2026-05-07 03:26 | 24.69442 | -144.29143 | 38144 ft | 514 kts | 64° |
| 2026-05-07 03:26 | 24.70900 | -144.25551 | 38299 ft | 514 kts | 64° |
| 2026-05-07 03:26 | 24.72354 | -144.21968 | 38508 ft | 513 kts | 64° |
| 2026-05-07 03:27 | 24.73790 | -144.18425 | 38642 ft | 513 kts | 64° |
| 2026-05-07 03:27 | 24.76708 | -144.11218 | 38843 ft | 514 kts | 64° |
| 2026-05-07 03:27 | 24.78164 | -144.07619 | 38951 ft | 514 kts | 64° |
| 2026-05-07 03:28 | 24.79621 | -144.04012 | 39058 ft | 514 kts | 64° |
| 2026-05-07 03:28 | 24.82511 | -143.96852 | 39139 ft | 515 kts | 64° |
| 2026-05-07 03:29 | 24.85413 | -143.89649 | 39140 ft | 515 kts | 64° |
| 2026-05-07 03:29 | 24.88308 | -143.82451 | 39145 ft | 513 kts | 64° |
| 2026-05-07 03:30 | 24.91194 | -143.75262 | 39144 ft | 512 kts | 64° |
| 2026-05-07 03:30 | 24.94072 | -143.68085 | 39146 ft | 512 kts | 64° |
| 2026-05-07 03:31 | 24.96951 | -143.60892 | 39145 ft | 513 kts | 64° |
| 2026-05-07 03:31 | 24.99826 | -143.53696 | 39146 ft | 513 kts | 64° |
| 2026-05-07 03:32 | 25.02693 | -143.46510 | 39149 ft | 511 kts | 64° |
| 2026-05-07 03:32 | 25.05531 | -143.39382 | 39144 ft | 509 kts | 64° |
| 2026-05-07 03:33 | 25.08380 | -143.32215 | 39147 ft | 509 kts | 64° |
| 2026-05-07 03:33 | 25.11222 | -143.25057 | 39149 ft | 509 kts | 64° |
| 2026-05-07 03:34 | 25.14065 | -143.17882 | 39148 ft | 510 kts | 64° |
| 2026-05-07 03:34 | 25.16883 | -143.10757 | 39148 ft | 508 kts | 65° |
| 2026-05-07 03:35 | 25.19706 | -143.03609 | 39151 ft | 507 kts | 65° |
| 2026-05-07 03:35 | 25.22522 | -142.96465 | 39148 ft | 507 kts | 65° |
| 2026-05-07 03:36 | 25.25339 | -142.89308 | 39155 ft | 507 kts | 65° |
| 2026-05-07 03:36 | 25.28148 | -142.82159 | 39155 ft | 507 kts | 65° |
| 2026-05-07 03:37 | 25.30954 | -142.75007 | 39163 ft | 506 kts | 65° |
| 2026-05-07 03:37 | 25.33728 | -142.67921 | 39164 ft | 505 kts | 65° |
| 2026-05-07 03:38 | 25.36521 | -142.60776 | 39149 ft | 505 kts | 65° |
| 2026-05-07 03:38 | 25.39305 | -142.53644 | 39151 ft | 505 kts | 65° |
| 2026-05-07 03:39 | 25.42094 | -142.46487 | 39153 ft | 506 kts | 65° |
| 2026-05-07 03:39 | 25.44879 | -142.39326 | 39161 ft | 506 kts | 65° |
| 2026-05-07 03:40 | 25.47633 | -142.32233 | 39164 ft | 504 kts | 65° |
| 2026-05-07 03:40 | 25.50399 | -142.25096 | 39154 ft | 504 kts | 65° |
| 2026-05-07 03:41 | 25.53160 | -142.17962 | 39158 ft | 504 kts | 65° |
| 2026-05-07 03:41 | 25.55922 | -142.10813 | 39175 ft | 504 kts | 65° |
| 2026-05-07 03:42 | 25.58678 | -142.03666 | 39170 ft | 504 kts | 65° |
| 2026-05-07 03:42 | 25.61416 | -141.96553 | 39162 ft | 505 kts | 65° |
| 2026-05-07 03:43 | 25.64164 | -141.89405 | 39164 ft | 505 kts | 65° |
| 2026-05-07 03:43 | 25.66914 | -141.82236 | 39163 ft | 505 kts | 65° |
| 2026-05-07 03:44 | 25.69663 | -141.75058 | 39174 ft | 505 kts | 65° |
| 2026-05-07 03:44 | 25.72409 | -141.67875 | 39168 ft | 505 kts | 65° |
| 2026-05-07 03:45 | 25.75144 | -141.60709 | 39172 ft | 503 kts | 65° |
| 2026-05-07 03:45 | 25.77851 | -141.53603 | 39173 ft | 503 kts | 65° |
| 2026-05-07 03:46 | 25.80577 | -141.46437 | 39174 ft | 504 kts | 65° |
| 2026-05-07 03:46 | 25.83298 | -141.39270 | 39176 ft | 504 kts | 65° |
| 2026-05-07 03:47 | 25.85558 | -141.33308 | 39187 ft | 503 kts | 65° |
| 2026-05-07 03:47 | 25.88268 | -141.26145 | 39184 ft | 503 kts | 65° |
| 2026-05-07 03:48 | 25.90978 | -141.18973 | 39184 ft | 503 kts | 65° |
| 2026-05-07 03:48 | 25.93682 | -141.11803 | 39181 ft | 503 kts | 65° |
| 2026-05-07 03:49 | 25.96381 | -141.04632 | 39180 ft | 503 kts | 65° |
| 2026-05-07 03:49 | 25.99062 | -140.97498 | 39184 ft | 502 kts | 65° |
| 2026-05-07 03:50 | 26.01745 | -140.90344 | 39182 ft | 500 kts | 65° |
| 2026-05-07 03:50 | 26.04420 | -140.83200 | 39181 ft | 501 kts | 65° |
| 2026-05-07 03:51 | 26.07100 | -140.76034 | 39182 ft | 502 kts | 65° |
| 2026-05-07 03:51 | 26.09772 | -140.68871 | 39179 ft | 502 kts | 65° |
| 2026-05-07 03:52 | 26.12445 | -140.61696 | 39178 ft | 500 kts | 65° |
| 2026-05-07 03:52 | 26.15108 | -140.54531 | 39183 ft | 500 kts | 65° |
| 2026-05-07 03:53 | 26.17747 | -140.47423 | 39187 ft | 500 kts | 65° |
| 2026-05-07 03:53 | 26.20395 | -140.40274 | 39184 ft | 500 kts | 65° |
| 2026-05-07 03:54 | 26.23048 | -140.33102 | 39201 ft | 500 kts | 65° |
| 2026-05-07 03:54 | 26.25690 | -140.25943 | 39188 ft | 499 kts | 65° |
| 2026-05-07 03:55 | 26.28326 | -140.18789 | 39189 ft | 499 kts | 65° |
| 2026-05-07 03:55 | 26.30963 | -140.11622 | 39190 ft | 499 kts | 65° |
| 2026-05-07 03:56 | 26.33579 | -140.04498 | 39188 ft | 500 kts | 65° |
| 2026-05-07 03:56 | 26.36207 | -139.97326 | 39192 ft | 499 kts | 65° |
| 2026-05-07 03:57 | 26.38833 | -139.90149 | 39193 ft | 499 kts | 65° |
| 2026-05-07 03:57 | 26.41457 | -139.82961 | 39198 ft | 499 kts | 65° |
| 2026-05-07 03:58 | 26.44074 | -139.75782 | 39199 ft | 499 kts | 65° |
| 2026-05-07 03:58 | 26.46688 | -139.68598 | 39198 ft | 500 kts | 65° |
| 2026-05-07 03:59 | 26.49281 | -139.61459 | 39199 ft | 499 kts | 65° |
| 2026-05-07 03:59 | 26.51885 | -139.54276 | 39201 ft | 499 kts | 65° |
| 2026-05-07 04:00 | 26.54485 | -139.47089 | 39203 ft | 499 kts | 65° |
| 2026-05-07 04:00 | 26.57086 | -139.39889 | 39207 ft | 499 kts | 65° |
| 2026-05-07 04:01 | 26.59685 | -139.32682 | 39214 ft | 499 kts | 65° |
| 2026-05-07 04:01 | 26.62275 | -139.25482 | 39211 ft | 499 kts | 65° |
| 2026-05-07 04:02 | 26.64860 | -139.18286 | 39208 ft | 499 kts | 65° |
| 2026-05-07 04:02 | 26.67428 | -139.11123 | 39210 ft | 499 kts | 65° |
| 2026-05-07 04:03 | 26.70010 | -139.03908 | 39209 ft | 500 kts | 66° |
| 2026-05-07 04:03 | 26.72592 | -138.96679 | 39210 ft | 500 kts | 65° |
| 2026-05-07 04:04 | 26.75169 | -138.89450 | 39213 ft | 499 kts | 65° |
| 2026-05-07 04:04 | 26.77724 | -138.82271 | 39213 ft | 499 kts | 65° |
| 2026-05-07 04:05 | 26.80290 | -138.75048 | 39215 ft | 499 kts | 65° |
| 2026-05-07 04:05 | 26.82858 | -138.67803 | 39213 ft | 499 kts | 66° |
| 2026-05-07 04:06 | 26.85416 | -138.60574 | 39210 ft | 499 kts | 66° |
| 2026-05-07 04:06 | 26.87971 | -138.53340 | 39210 ft | 500 kts | 66° |
| 2026-05-07 04:07 | 26.90524 | -138.46098 | 39218 ft | 500 kts | 66° |
| 2026-05-07 04:07 | 26.93076 | -138.38847 | 39215 ft | 500 kts | 66° |
| 2026-05-07 04:08 | 26.95623 | -138.31594 | 39220 ft | 499 kts | 66° |
| 2026-05-07 04:08 | 26.98161 | -138.24350 | 39219 ft | 499 kts | 66° |
| 2026-05-07 04:09 | 27.00699 | -138.17099 | 39219 ft | 499 kts | 66° |
| 2026-05-07 04:09 | 27.03210 | -138.09889 | 39219 ft | 499 kts | 66° |
| 2026-05-07 04:10 | 27.05732 | -138.02622 | 39224 ft | 499 kts | 66° |
| 2026-05-07 04:10 | 27.08251 | -137.95356 | 39222 ft | 499 kts | 66° |
| 2026-05-07 04:11 | 27.10768 | -137.88087 | 39224 ft | 499 kts | 66° |
| 2026-05-07 04:11 | 27.13260 | -137.80874 | 39224 ft | 499 kts | 66° |
| 2026-05-07 04:12 | 27.15770 | -137.73596 | 39224 ft | 499 kts | 66° |
| 2026-05-07 04:12 | 27.18271 | -137.66329 | 39224 ft | 498 kts | 66° |
| 2026-05-07 04:13 | 27.20772 | -137.59050 | 39233 ft | 498 kts | 66° |
| 2026-05-07 04:13 | 27.23250 | -137.51823 | 39227 ft | 498 kts | 66° |
| 2026-05-07 04:14 | 27.25740 | -137.44546 | 39227 ft | 498 kts | 66° |
| 2026-05-07 04:14 | 27.28215 | -137.37297 | 39228 ft | 498 kts | 66° |
| 2026-05-07 04:15 | 27.30693 | -137.30027 | 39230 ft | 497 kts | 66° |
| 2026-05-07 04:15 | 27.33164 | -137.22764 | 39230 ft | 497 kts | 66° |
| 2026-05-07 04:16 | 27.35634 | -137.15489 | 39229 ft | 497 kts | 66° |
| 2026-05-07 04:16 | 27.38096 | -137.08225 | 39234 ft | 497 kts | 66° |
| 2026-05-07 04:17 | 27.40553 | -137.00958 | 39231 ft | 497 kts | 66° |
| 2026-05-07 04:17 | 27.42991 | -136.93736 | 39234 ft | 496 kts | 66° |
| 2026-05-07 04:18 | 27.45438 | -136.86470 | 39233 ft | 496 kts | 66° |
| 2026-05-07 04:18 | 27.47879 | -136.79210 | 39235 ft | 496 kts | 66° |
| 2026-05-07 04:19 | 27.50316 | -136.71945 | 39234 ft | 495 kts | 66° |
| 2026-05-07 04:19 | 27.52750 | -136.64676 | 39234 ft | 496 kts | 66° |
| 2026-05-07 04:20 | 27.55183 | -136.57396 | 39238 ft | 496 kts | 66° |
| 2026-05-07 04:20 | 27.57608 | -136.50123 | 39234 ft | 495 kts | 66° |
| 2026-05-07 04:21 | 27.61237 | -136.39215 | 39238 ft | 495 kts | 66° |
| 2026-05-07 04:21 | 27.63635 | -136.31988 | 39241 ft | 495 kts | 66° |
| 2026-05-07 04:22 | 27.66047 | -136.24708 | 39239 ft | 495 kts | 66° |
| 2026-05-07 04:22 | 27.68454 | -136.17422 | 39245 ft | 495 kts | 66° |
| 2026-05-07 04:23 | 27.70856 | -136.10139 | 39241 ft | 495 kts | 66° |
| 2026-05-07 04:23 | 27.73255 | -136.02853 | 39244 ft | 495 kts | 66° |
| 2026-05-07 04:24 | 27.75654 | -135.95549 | 39243 ft | 495 kts | 66° |
| 2026-05-07 04:24 | 27.78031 | -135.88300 | 39243 ft | 495 kts | 66° |
| 2026-05-07 04:25 | 27.80421 | -135.80994 | 39247 ft | 495 kts | 67° |
| 2026-05-07 04:25 | 27.82806 | -135.73690 | 39248 ft | 495 kts | 67° |
| 2026-05-07 04:26 | 27.85187 | -135.66380 | 39246 ft | 495 kts | 67° |
| 2026-05-07 04:26 | 27.87565 | -135.59069 | 39247 ft | 495 kts | 67° |
| 2026-05-07 04:27 | 27.89926 | -135.51792 | 39247 ft | 495 kts | 67° |
| 2026-05-07 04:27 | 27.92294 | -135.44479 | 39249 ft | 496 kts | 67° |
| 2026-05-07 04:28 | 27.94661 | -135.37155 | 39246 ft | 496 kts | 67° |
| 2026-05-07 04:28 | 27.97023 | -135.29831 | 39259 ft | 496 kts | 67° |
| 2026-05-07 04:29 | 27.99382 | -135.22500 | 39250 ft | 496 kts | 67° |
| 2026-05-07 04:29 | 28.01739 | -135.15159 | 39254 ft | 496 kts | 67° |
| 2026-05-07 04:30 | 28.04094 | -135.07812 | 39250 ft | 496 kts | 67° |
| 2026-05-07 04:30 | 28.06447 | -135.00454 | 39264 ft | 496 kts | 67° |
| 2026-05-07 04:31 | 28.08395 | -134.94349 | 39247 ft | 495 kts | 67° |
| 2026-05-07 04:31 | 28.10726 | -134.87029 | 39251 ft | 494 kts | 67° |
| 2026-05-07 04:32 | 28.13056 | -134.79701 | 39256 ft | 494 kts | 67° |
| 2026-05-07 04:32 | 28.15379 | -134.72377 | 39248 ft | 494 kts | 67° |
| 2026-05-07 04:33 | 28.17703 | -134.65038 | 39255 ft | 494 kts | 67° |
| 2026-05-07 04:33 | 28.20007 | -134.57744 | 39254 ft | 494 kts | 67° |
| 2026-05-07 04:34 | 28.22322 | -134.50399 | 39256 ft | 494 kts | 67° |
| 2026-05-07 04:34 | 28.24632 | -134.43057 | 39254 ft | 494 kts | 67° |
| 2026-05-07 04:35 | 28.26938 | -134.35709 | 39250 ft | 494 kts | 67° |
| 2026-05-07 04:35 | 28.29240 | -134.28359 | 39258 ft | 494 kts | 67° |
| 2026-05-07 04:36 | 28.31523 | -134.21054 | 39264 ft | 494 kts | 67° |
| 2026-05-07 04:36 | 28.33814 | -134.13706 | 39264 ft | 494 kts | 67° |
| 2026-05-07 04:37 | 28.36102 | -134.06355 | 39267 ft | 494 kts | 67° |
| 2026-05-07 04:37 | 28.38388 | -133.98993 | 39258 ft | 494 kts | 67° |
| 2026-05-07 04:38 | 28.40653 | -133.91683 | 39262 ft | 494 kts | 67° |
| 2026-05-07 04:38 | 28.42930 | -133.84318 | 39262 ft | 494 kts | 67° |
| 2026-05-07 04:39 | 28.45203 | -133.76951 | 39265 ft | 493 kts | 67° |
| 2026-05-07 04:39 | 28.47469 | -133.69590 | 39265 ft | 493 kts | 67° |
| 2026-05-07 04:40 | 28.49732 | -133.62225 | 39276 ft | 493 kts | 67° |
| 2026-05-07 04:40 | 28.51990 | -133.54858 | 39270 ft | 493 kts | 67° |
| 2026-05-07 04:41 | 28.54243 | -133.47490 | 39268 ft | 493 kts | 67° |
| 2026-05-07 04:41 | 28.56481 | -133.40157 | 39270 ft | 493 kts | 67° |
| 2026-05-07 04:42 | 28.58727 | -133.32780 | 39271 ft | 493 kts | 67° |
| 2026-05-07 04:42 | 28.60970 | -133.25397 | 39271 ft | 493 kts | 67° |
| 2026-05-07 04:43 | 28.63207 | -133.18018 | 39271 ft | 493 kts | 67° |
| 2026-05-07 04:43 | 28.65440 | -133.10635 | 39273 ft | 493 kts | 67° |
| 2026-05-07 04:44 | 28.67669 | -133.03251 | 39271 ft | 493 kts | 67° |
| 2026-05-07 04:44 | 28.69896 | -132.95856 | 39271 ft | 493 kts | 67° |
| 2026-05-07 04:45 | 28.72104 | -132.88506 | 39273 ft | 493 kts | 67° |
| 2026-05-07 04:45 | 28.74324 | -132.81101 | 39273 ft | 493 kts | 67° |
| 2026-05-07 04:46 | 28.76536 | -132.73707 | 39273 ft | 493 kts | 67° |
| 2026-05-07 04:46 | 28.78745 | -132.66307 | 39274 ft | 493 kts | 67° |
| 2026-05-07 04:47 | 28.80949 | -132.58904 | 39279 ft | 493 kts | 67° |
| 2026-05-07 04:47 | 28.83133 | -132.51554 | 39276 ft | 493 kts | 67° |
| 2026-05-07 04:48 | 28.85329 | -132.44145 | 39275 ft | 493 kts | 67° |
| 2026-05-07 04:48 | 28.87526 | -132.36719 | 39277 ft | 492 kts | 67° |
| 2026-05-07 04:49 | 28.89710 | -132.29319 | 39279 ft | 492 kts | 67° |
| 2026-05-07 04:49 | 28.91884 | -132.21935 | 39278 ft | 493 kts | 67° |
| 2026-05-07 04:50 | 28.94061 | -132.14523 | 39277 ft | 492 kts | 67° |
| 2026-05-07 04:50 | 28.96233 | -132.07112 | 39278 ft | 492 kts | 67° |
| 2026-05-07 04:51 | 28.98401 | -131.99700 | 39279 ft | 492 kts | 67° |
| 2026-05-07 04:51 | 29.00570 | -131.92265 | 39279 ft | 492 kts | 67° |
| 2026-05-07 04:52 | 29.02728 | -131.84851 | 39282 ft | 492 kts | 67° |
| 2026-05-07 04:52 | 29.04869 | -131.77479 | 39285 ft | 492 kts | 67° |
| 2026-05-07 04:53 | 29.07021 | -131.70054 | 39279 ft | 492 kts | 67° |
| 2026-05-07 04:53 | 29.09167 | -131.62628 | 39281 ft | 492 kts | 67° |
| 2026-05-07 04:54 | 29.11310 | -131.55198 | 39294 ft | 492 kts | 67° |
| 2026-05-07 04:54 | 29.13447 | -131.47773 | 39281 ft | 491 kts | 67° |
| 2026-05-07 04:55 | 29.15576 | -131.40353 | 39279 ft | 491 kts | 67° |
| 2026-05-07 04:55 | 29.17707 | -131.32914 | 39285 ft | 491 kts | 67° |
| 2026-05-07 04:56 | 29.19828 | -131.25492 | 39284 ft | 491 kts | 67° |
| 2026-05-07 04:56 | 29.21932 | -131.18109 | 39284 ft | 491 kts | 67° |
| 2026-05-07 04:57 | 29.24046 | -131.10678 | 39289 ft | 491 kts | 67° |
| 2026-05-07 04:57 | 29.26156 | -131.03239 | 39284 ft | 491 kts | 67° |
| 2026-05-07 04:58 | 29.28261 | -130.95806 | 39283 ft | 490 kts | 67° |
| 2026-05-07 04:58 | 29.30361 | -130.88365 | 39289 ft | 490 kts | 67° |
| 2026-05-07 04:59 | 29.32458 | -130.80914 | 39279 ft | 490 kts | 67° |
| 2026-05-07 04:59 | 29.34534 | -130.73523 | 39279 ft | 490 kts | 68° |
| 2026-05-07 05:00 | 29.36620 | -130.66082 | 39291 ft | 490 kts | 68° |
| 2026-05-07 05:00 | 29.38702 | -130.58635 | 39289 ft | 490 kts | 68° |
| 2026-05-07 05:01 | 29.40779 | -130.51189 | 39277 ft | 490 kts | 68° |
| 2026-05-07 05:01 | 29.42854 | -130.43735 | 39282 ft | 490 kts | 68° |
| 2026-05-07 05:02 | 29.44922 | -130.36284 | 39286 ft | 490 kts | 68° |
| 2026-05-07 05:02 | 29.46984 | -130.28835 | 39284 ft | 490 kts | 68° |
| 2026-05-07 05:03 | 29.49041 | -130.21391 | 39291 ft | 489 kts | 68° |
| 2026-05-07 05:03 | 29.51096 | -130.13934 | 39284 ft | 489 kts | 68° |
| 2026-05-07 05:04 | 29.53133 | -130.06525 | 39284 ft | 489 kts | 68° |
| 2026-05-07 05:04 | 29.55181 | -129.99059 | 39284 ft | 489 kts | 68° |
| 2026-05-07 05:05 | 29.57223 | -129.91597 | 39279 ft | 490 kts | 68° |
| 2026-05-07 05:05 | 29.59262 | -129.84127 | 39284 ft | 490 kts | 68° |
| 2026-05-07 05:06 | 29.61296 | -129.76656 | 39282 ft | 490 kts | 69° |
| 2026-05-07 05:06 | 29.63329 | -129.69170 | 39281 ft | 490 kts | 69° |
| 2026-05-07 05:07 | 29.65343 | -129.61734 | 39281 ft | 490 kts | 69° |
| 2026-05-07 05:07 | 29.67367 | -129.54245 | 39285 ft | 490 kts | 70° |
| 2026-05-07 05:08 | 29.69385 | -129.46759 | 39285 ft | 490 kts | 70° |
| 2026-05-07 05:08 | 29.71402 | -129.39260 | 39281 ft | 490 kts | 70° |
| 2026-05-07 05:09 | 29.73414 | -129.31759 | 39282 ft | 490 kts | 70° |
| 2026-05-07 05:09 | 29.75419 | -129.24263 | 39279 ft | 490 kts | 70° |
| 2026-05-07 05:10 | 29.77423 | -129.16757 | 39281 ft | 490 kts | 70° |
| 2026-05-07 05:10 | 29.79412 | -129.09283 | 39285 ft | 490 kts | 71° |
| 2026-05-07 05:11 | 29.81409 | -129.01763 | 39282 ft | 490 kts | 71° |
| 2026-05-07 05:11 | 29.83397 | -128.94257 | 39282 ft | 489 kts | 71° |
| 2026-05-07 05:12 | 29.85368 | -128.86798 | 39281 ft | 489 kts | 71° |
| 2026-05-07 05:12 | 29.87346 | -128.79294 | 39279 ft | 489 kts | 71° |
| 2026-05-07 05:13 | 29.89319 | -128.71786 | 39282 ft | 489 kts | 71° |
| 2026-05-07 05:13 | 29.91285 | -128.64292 | 39286 ft | 489 kts | 71° |
| 2026-05-07 05:14 | 29.93243 | -128.56803 | 39281 ft | 487 kts | 71° |
| 2026-05-07 05:14 | 29.95195 | -128.49320 | 39281 ft | 487 kts | 71° |
| 2026-05-07 05:15 | 29.97131 | -128.41881 | 39279 ft | 487 kts | 71° |
| 2026-05-07 05:15 | 29.99078 | -128.34377 | 39279 ft | 487 kts | 71° |
| 2026-05-07 05:16 | 30.01017 | -128.26888 | 39276 ft | 487 kts | 71° |
| 2026-05-07 05:16 | 30.02956 | -128.19380 | 39276 ft | 487 kts | 71° |
| 2026-05-07 05:17 | 30.04887 | -128.11879 | 39279 ft | 487 kts | 71° |
| 2026-05-07 05:17 | 30.06486 | -128.05657 | 39276 ft | 487 kts | 71° |
| 2026-05-07 05:18 | 30.08722 | -127.96931 | 39279 ft | 487 kts | 71° |
| 2026-05-07 05:18 | 30.10328 | -127.90647 | 39279 ft | 486 kts | 71° |
| 2026-05-07 05:19 | 30.12225 | -127.83206 | 39278 ft | 486 kts | 71° |
| 2026-05-07 05:19 | 30.14130 | -127.75716 | 39276 ft | 485 kts | 71° |
| 2026-05-07 05:20 | 30.16029 | -127.68230 | 39279 ft | 485 kts | 71° |
| 2026-05-07 05:20 | 30.17923 | -127.60741 | 39276 ft | 485 kts | 71° |
| 2026-05-07 05:21 | 30.20752 | -127.49523 | 39276 ft | 485 kts | 71° |
| 2026-05-07 05:22 | 30.22620 | -127.42088 | 39276 ft | 484 kts | 71° |
| 2026-05-07 05:22 | 30.24494 | -127.34611 | 39276 ft | 483 kts | 71° |
| 2026-05-07 05:23 | 30.26365 | -127.27131 | 39273 ft | 483 kts | 72° |
| 2026-05-07 05:23 | 30.28230 | -127.19650 | 39274 ft | 483 kts | 71° |
| 2026-05-07 05:24 | 30.30089 | -127.12174 | 39271 ft | 483 kts | 71° |
| 2026-05-07 05:24 | 30.31932 | -127.04741 | 39273 ft | 483 kts | 72° |
| 2026-05-07 05:25 | 30.33783 | -126.97261 | 39278 ft | 483 kts | 72° |
| 2026-05-07 05:25 | 30.35627 | -126.89784 | 39273 ft | 482 kts | 72° |
| 2026-05-07 05:26 | 30.37453 | -126.82361 | 39275 ft | 482 kts | 72° |
| 2026-05-07 05:26 | 30.39284 | -126.74899 | 39273 ft | 482 kts | 72° |
| 2026-05-07 05:27 | 30.41114 | -126.67423 | 39272 ft | 481 kts | 72° |
| 2026-05-07 05:27 | 30.42934 | -126.59962 | 39268 ft | 481 kts | 72° |
| 2026-05-07 05:28 | 30.44752 | -126.52496 | 39266 ft | 481 kts | 72° |
| 2026-05-07 05:28 | 30.46563 | -126.45035 | 39266 ft | 481 kts | 72° |
| 2026-05-07 05:29 | 30.48371 | -126.37567 | 39265 ft | 481 kts | 72° |
| 2026-05-07 05:29 | 30.50161 | -126.30151 | 39265 ft | 481 kts | 72° |
| 2026-05-07 05:30 | 30.51964 | -126.22664 | 39269 ft | 481 kts | 72° |
| 2026-05-07 05:30 | 30.53756 | -126.15199 | 39264 ft | 480 kts | 72° |
| 2026-05-07 05:31 | 30.55540 | -126.07748 | 39264 ft | 480 kts | 72° |
| 2026-05-07 05:31 | 30.57324 | -126.00277 | 39263 ft | 480 kts | 72° |
| 2026-05-07 05:32 | 30.59090 | -125.92859 | 39258 ft | 480 kts | 72° |
| 2026-05-07 05:32 | 30.60866 | -125.85382 | 39263 ft | 480 kts | 72° |
| 2026-05-07 05:33 | 30.62633 | -125.77918 | 39257 ft | 480 kts | 72° |
| 2026-05-07 05:33 | 30.64398 | -125.70444 | 39262 ft | 479 kts | 72° |
| 2026-05-07 05:34 | 30.66159 | -125.62969 | 39256 ft | 479 kts | 72° |
| 2026-05-07 05:34 | 30.67910 | -125.55511 | 39258 ft | 479 kts | 72° |
| 2026-05-07 05:35 | 30.69660 | -125.48038 | 39261 ft | 479 kts | 72° |
| 2026-05-07 05:35 | 30.71394 | -125.40612 | 39256 ft | 478 kts | 73° |
| 2026-05-07 05:36 | 30.73142 | -125.33106 | 39254 ft | 478 kts | 73° |
| 2026-05-07 05:36 | 30.74864 | -125.25691 | 39255 ft | 478 kts | 73° |
| 2026-05-07 05:37 | 30.76592 | -125.18230 | 39243 ft | 477 kts | 73° |
| 2026-05-07 05:37 | 30.78313 | -125.10775 | 39248 ft | 477 kts | 73° |
| 2026-05-07 05:38 | 30.80030 | -125.03318 | 39246 ft | 477 kts | 73° |
| 2026-05-07 05:38 | 30.81741 | -124.95869 | 39250 ft | 476 kts | 73° |
| 2026-05-07 05:39 | 30.83448 | -124.88412 | 39245 ft | 476 kts | 73° |
| 2026-05-07 05:39 | 30.85135 | -124.81021 | 39240 ft | 475 kts | 73° |
| 2026-05-07 05:40 | 30.86828 | -124.73584 | 39243 ft | 475 kts | 73° |
| 2026-05-07 05:40 | 30.88517 | -124.66142 | 39241 ft | 474 kts | 73° |
| 2026-05-07 05:41 | 30.90196 | -124.58725 | 39240 ft | 474 kts | 73° |
| 2026-05-07 05:41 | 30.91862 | -124.51343 | 39242 ft | 474 kts | 73° |
| 2026-05-07 05:42 | 30.93533 | -124.43917 | 39242 ft | 473 kts | 73° |
| 2026-05-07 05:42 | 30.95192 | -124.36523 | 39238 ft | 472 kts | 73° |
| 2026-05-07 05:43 | 30.96848 | -124.29125 | 39235 ft | 471 kts | 73° |
| 2026-05-07 05:43 | 30.98499 | -124.21725 | 39237 ft | 471 kts | 73° |
| 2026-05-07 05:44 | 31.00143 | -124.14331 | 39236 ft | 470 kts | 74° |
| 2026-05-07 05:44 | 31.01781 | -124.06950 | 39231 ft | 470 kts | 74° |
| 2026-05-07 05:45 | 31.03400 | -123.99628 | 39229 ft | 470 kts | 74° |
| 2026-05-07 05:45 | 31.05027 | -123.92250 | 39233 ft | 469 kts | 74° |
| 2026-05-07 05:46 | 31.06650 | -123.84868 | 39224 ft | 469 kts | 74° |
| 2026-05-07 05:46 | 31.08265 | -123.77504 | 39226 ft | 468 kts | 74° |
| 2026-05-07 05:47 | 31.09878 | -123.70125 | 39229 ft | 468 kts | 74° |
| 2026-05-07 05:47 | 31.11482 | -123.62764 | 39229 ft | 468 kts | 74° |
| 2026-05-07 05:48 | 31.13073 | -123.55444 | 39225 ft | 468 kts | 74° |
| 2026-05-07 05:48 | 31.14633 | -123.48078 | 39225 ft | 468 kts | 75° |
| 2026-05-07 05:49 | 31.16138 | -123.40686 | 39225 ft | 468 kts | 75° |
| 2026-05-07 05:49 | 31.17638 | -123.33297 | 39222 ft | 468 kts | 75° |
| 2026-05-07 05:50 | 31.19149 | -123.25890 | 39218 ft | 468 kts | 75° |
| 2026-05-07 05:50 | 31.20644 | -123.18552 | 39219 ft | 468 kts | 75° |
| 2026-05-07 05:51 | 31.22146 | -123.11163 | 39216 ft | 467 kts | 75° |
| 2026-05-07 05:51 | 31.23644 | -123.03769 | 39218 ft | 467 kts | 75° |
| 2026-05-07 05:52 | 31.25138 | -122.96369 | 39219 ft | 467 kts | 75° |
| 2026-05-07 05:52 | 31.26628 | -122.88966 | 39210 ft | 467 kts | 75° |
| 2026-05-07 05:53 | 31.28112 | -122.81574 | 39213 ft | 467 kts | 75° |
| 2026-05-07 05:53 | 31.29591 | -122.74176 | 39211 ft | 467 kts | 75° |
| 2026-05-07 05:54 | 31.31065 | -122.66781 | 39209 ft | 467 kts | 75° |
| 2026-05-07 05:54 | 31.32526 | -122.59430 | 39208 ft | 467 kts | 75° |
| 2026-05-07 05:55 | 31.33993 | -122.52030 | 39211 ft | 467 kts | 76° |
| 2026-05-07 05:55 | 31.35456 | -122.44617 | 39204 ft | 467 kts | 76° |
| 2026-05-07 05:56 | 31.36913 | -122.37217 | 39202 ft | 467 kts | 76° |
| 2026-05-07 05:56 | 31.38367 | -122.29804 | 39200 ft | 467 kts | 76° |
| 2026-05-07 05:57 | 31.39818 | -122.22384 | 39193 ft | 467 kts | 76° |
| 2026-05-07 05:57 | 31.41265 | -122.14963 | 39197 ft | 467 kts | 76° |
| 2026-05-07 05:58 | 31.42697 | -122.07591 | 39195 ft | 467 kts | 76° |
| 2026-05-07 05:58 | 31.44134 | -122.00169 | 39196 ft | 467 kts | 76° |
| 2026-05-07 05:59 | 31.45567 | -121.92746 | 39189 ft | 467 kts | 76° |
| 2026-05-07 05:59 | 31.47001 | -121.85292 | 39188 ft | 467 kts | 76° |
| 2026-05-07 06:00 | 31.48428 | -121.77849 | 39192 ft | 467 kts | 76° |
| 2026-05-07 06:00 | 31.49839 | -121.70466 | 39188 ft | 467 kts | 76° |
| 2026-05-07 06:01 | 31.51255 | -121.63034 | 39184 ft | 467 kts | 76° |
| 2026-05-07 06:01 | 31.52665 | -121.55604 | 39186 ft | 467 kts | 76° |
| 2026-05-07 06:02 | 31.54073 | -121.48164 | 39179 ft | 467 kts | 76° |
| 2026-05-07 06:02 | 31.55514 | -121.40731 | 39184 ft | 467 kts | 72° |
| 2026-05-07 06:03 | 31.57700 | -121.33591 | 39188 ft | 465 kts | 67° |
| 2026-05-07 06:03 | 31.60118 | -121.26556 | 39185 ft | 465 kts | 66° |
| 2026-05-07 06:04 | 31.62570 | -121.19539 | 39185 ft | 465 kts | 66° |
| 2026-05-07 06:04 | 31.65011 | -121.12516 | 39178 ft | 464 kts | 66° |
| 2026-05-07 06:05 | 31.67031 | -121.06670 | 39175 ft | 464 kts | 66° |
| 2026-05-07 06:05 | 31.69452 | -120.99640 | 39172 ft | 464 kts | 66° |
| 2026-05-07 06:06 | 31.71868 | -120.92606 | 39173 ft | 464 kts | 66° |
| 2026-05-07 06:06 | 31.74261 | -120.85626 | 39175 ft | 463 kts | 66° |
| 2026-05-07 06:07 | 31.76670 | -120.78584 | 39174 ft | 463 kts | 66° |
| 2026-05-07 06:07 | 31.79072 | -120.71551 | 39166 ft | 463 kts | 66° |
| 2026-05-07 06:08 | 31.81468 | -120.64518 | 39168 ft | 464 kts | 66° |
| 2026-05-07 06:08 | 31.83862 | -120.57476 | 39156 ft | 464 kts | 66° |
| 2026-05-07 06:09 | 31.86253 | -120.50429 | 39168 ft | 464 kts | 66° |
| 2026-05-07 06:09 | 31.88638 | -120.43381 | 39162 ft | 464 kts | 66° |
| 2026-05-07 06:10 | 31.91021 | -120.36329 | 39164 ft | 463 kts | 66° |
| 2026-05-07 06:10 | 31.93514 | -120.29345 | 39172 ft | 462 kts | 60° |
| 2026-05-07 06:11 | 31.97138 | -120.23225 | 39156 ft | 458 kts | 48° |
| 2026-05-07 06:11 | 32.01416 | -120.17663 | 39160 ft | 458 kts | 46° |
| 2026-05-07 06:12 | 32.05794 | -120.12194 | 39156 ft | 459 kts | 46° |
| 2026-05-07 06:12 | 32.10168 | -120.06718 | 39157 ft | 458 kts | 46° |
| 2026-05-07 06:13 | 32.14517 | -120.01230 | 39156 ft | 458 kts | 46° |
| 2026-05-07 06:13 | 32.18860 | -119.95724 | 39154 ft | 458 kts | 46° |
| 2026-05-07 06:14 | 32.23199 | -119.90214 | 39150 ft | 458 kts | 46° |
| 2026-05-07 06:14 | 32.27535 | -119.84700 | 39148 ft | 458 kts | 46° |
| 2026-05-07 06:15 | 32.31866 | -119.79186 | 39144 ft | 457 kts | 46° |
| 2026-05-07 06:15 | 32.36184 | -119.73679 | 39146 ft | 456 kts | 46° |
| 2026-05-07 06:16 | 32.40466 | -119.68211 | 39148 ft | 456 kts | 46° |
| 2026-05-07 06:16 | 32.44775 | -119.62700 | 39146 ft | 456 kts | 46° |
| 2026-05-07 06:17 | 32.49083 | -119.57187 | 39141 ft | 456 kts | 46° |
| 2026-05-07 06:17 | 32.53384 | -119.51672 | 39148 ft | 455 kts | 46° |
| 2026-05-07 06:18 | 32.57681 | -119.46145 | 39139 ft | 454 kts | 46° |
| 2026-05-07 06:18 | 32.61953 | -119.40644 | 39137 ft | 453 kts | 46° |
| 2026-05-07 06:19 | 32.66198 | -119.35172 | 39135 ft | 453 kts | 46° |
| 2026-05-07 06:19 | 32.70474 | -119.29654 | 39132 ft | 453 kts | 46° |
| 2026-05-07 06:20 | 32.74742 | -119.24136 | 39142 ft | 453 kts | 46° |
| 2026-05-07 06:20 | 32.78999 | -119.18624 | 39132 ft | 452 kts | 46° |
| 2026-05-07 06:21 | 32.83255 | -119.13106 | 39127 ft | 452 kts | 46° |
| 2026-05-07 06:21 | 32.87505 | -119.07587 | 39127 ft | 452 kts | 46° |
| 2026-05-07 06:22 | 32.91723 | -119.02101 | 39125 ft | 452 kts | 46° |
| 2026-05-07 06:22 | 32.98084 | -118.93811 | 39131 ft | 452 kts | 46° |
| 2026-05-07 06:23 | 33.02329 | -118.88269 | 39122 ft | 452 kts | 46° |
| 2026-05-07 06:23 | 33.06574 | -118.82717 | 39121 ft | 452 kts | 46° |
| 2026-05-07 06:24 | 33.10786 | -118.77202 | 39117 ft | 452 kts | 46° |
| 2026-05-07 06:24 | 33.15022 | -118.71645 | 39117 ft | 452 kts | 46° |
| 2026-05-07 06:25 | 33.19252 | -118.66091 | 39130 ft | 452 kts | 46° |
| 2026-05-07 06:25 | 33.23482 | -118.60529 | 39126 ft | 452 kts | 46° |
| 2026-05-07 06:26 | 33.27708 | -118.54955 | 39131 ft | 452 kts | 46° |
| 2026-05-07 06:26 | 33.31898 | -118.49423 | 39136 ft | 452 kts | 46° |
| 2026-05-07 06:27 | 33.35887 | -118.43628 | 39139 ft | 453 kts | 55° |
| 2026-05-07 06:27 | 33.38561 | -118.36787 | 39163 ft | 458 kts | 71° |
| 2026-05-07 06:28 | 33.40244 | -118.29440 | 39136 ft | 458 kts | 73° |
| 2026-05-07 06:28 | 33.41758 | -118.22036 | 39130 ft | 457 kts | 73° |
| 2026-05-07 06:29 | 33.43265 | -118.14644 | 39122 ft | 457 kts | 73° |
| 2026-05-07 06:29 | 33.44793 | -118.07254 | 39111 ft | 457 kts | 73° |
| 2026-05-07 06:30 | 33.46325 | -117.99876 | 39114 ft | 455 kts | 72° |
| 2026-05-07 06:30 | 33.47851 | -117.92518 | 39115 ft | 455 kts | 72° |
| 2026-05-07 06:31 | 33.49359 | -117.85217 | 39115 ft | 455 kts | 73° |
| 2026-05-07 06:31 | 33.50874 | -117.77859 | 39115 ft | 455 kts | 73° |
| 2026-05-07 06:32 | 33.52385 | -117.70494 | 39116 ft | 455 kts | 73° |
| 2026-05-07 06:32 | 33.53892 | -117.63126 | 39114 ft | 455 kts | 73° |
| 2026-05-07 06:33 | 33.55394 | -117.55754 | 39111 ft | 455 kts | 73° |
| 2026-05-07 06:33 | 33.56892 | -117.48381 | 39112 ft | 455 kts | 73° |
| 2026-05-07 06:34 | 33.58382 | -117.41018 | 39111 ft | 455 kts | 73° |
| 2026-05-07 06:34 | 33.59861 | -117.33692 | 39102 ft | 454 kts | 73° |
| 2026-05-07 06:35 | 33.61342 | -117.26328 | 39103 ft | 454 kts | 73° |
| 2026-05-07 06:35 | 33.62821 | -117.18948 | 39094 ft | 454 kts | 73° |
| 2026-05-07 06:36 | 33.64294 | -117.11578 | 39132 ft | 454 kts | 73° |
| 2026-05-07 06:36 | 33.65760 | -117.04219 | 39138 ft | 453 kts | 73° |
| 2026-05-07 06:37 | 33.67223 | -116.96853 | 39135 ft | 453 kts | 73° |
| 2026-05-07 06:37 | 33.68679 | -116.89491 | 39132 ft | 453 kts | 73° |
| 2026-05-07 06:38 | 33.70132 | -116.82118 | 39118 ft | 454 kts | 73° |
| 2026-05-07 06:38 | 33.71588 | -116.74718 | 39092 ft | 455 kts | 73° |
| 2026-05-07 06:39 | 33.73040 | -116.67304 | 39079 ft | 456 kts | 73° |
| 2026-05-07 06:39 | 33.74478 | -116.59935 | 39040 ft | 455 kts | 73° |
| 2026-05-07 06:40 | 33.75922 | -116.52516 | 39037 ft | 457 kts | 73° |
| 2026-05-07 06:40 | 33.77374 | -116.45029 | 39036 ft | 460 kts | 73° |
| 2026-05-07 06:41 | 33.78814 | -116.37574 | 39034 ft | 461 kts | 73° |
| 2026-05-07 06:41 | 33.80260 | -116.30059 | 39029 ft | 461 kts | 73° |
| 2026-05-07 06:42 | 33.81702 | -116.22544 | 39018 ft | 461 kts | 73° |
| 2026-05-07 06:42 | 33.83144 | -116.15004 | 39008 ft | 463 kts | 73° |
| 2026-05-07 06:43 | 33.84584 | -116.07449 | 39009 ft | 462 kts | 73° |
| 2026-05-07 06:43 | 33.86015 | -115.99911 | 39006 ft | 462 kts | 73° |
| 2026-05-07 06:44 | 33.87441 | -115.92367 | 39004 ft | 462 kts | 73° |
| 2026-05-07 06:44 | 33.88867 | -115.84814 | 38997 ft | 463 kts | 73° |
| 2026-05-07 06:45 | 33.90279 | -115.77291 | 39010 ft | 463 kts | 73° |
| 2026-05-07 06:45 | 33.91697 | -115.69711 | 39009 ft | 463 kts | 73° |
| 2026-05-07 06:46 | 33.93108 | -115.62140 | 39011 ft | 463 kts | 74° |
| 2026-05-07 06:46 | 33.94498 | -115.54654 | 39002 ft | 459 kts | 74° |
| 2026-05-07 06:47 | 33.95885 | -115.47162 | 38991 ft | 458 kts | 74° |
| 2026-05-07 06:47 | 33.97273 | -115.39648 | 38991 ft | 458 kts | 74° |
| 2026-05-07 06:48 | 33.98641 | -115.32203 | 38989 ft | 458 kts | 74° |
| 2026-05-07 06:48 | 34.00014 | -115.24710 | 38973 ft | 457 kts | 74° |
| 2026-05-07 06:49 | 34.01382 | -115.17210 | 38969 ft | 457 kts | 74° |
| 2026-05-07 06:49 | 34.02743 | -115.09727 | 38966 ft | 457 kts | 74° |
| 2026-05-07 06:50 | 34.04101 | -115.02233 | 38968 ft | 457 kts | 74° |
| 2026-05-07 06:50 | 34.05456 | -114.94730 | 38957 ft | 459 kts | 75° |
| 2026-05-07 06:51 | 34.06805 | -114.87231 | 38964 ft | 460 kts | 75° |
| 2026-05-07 06:51 | 34.07929 | -114.80958 | 38962 ft | 460 kts | 75° |
| 2026-05-07 06:52 | 34.09277 | -114.73411 | 38954 ft | 460 kts | 75° |
| 2026-05-07 06:52 | 34.10364 | -114.65779 | 38955 ft | 462 kts | 80° |
| 2026-05-07 06:53 | 34.11043 | -114.58054 | 38944 ft | 463 kts | 81° |
| 2026-05-07 06:53 | 34.11653 | -114.50313 | 38947 ft | 463 kts | 81° |
| 2026-05-07 06:54 | 34.12254 | -114.42569 | 38945 ft | 463 kts | 81° |
| 2026-05-07 06:54 | 34.12858 | -114.34827 | 38946 ft | 465 kts | 82° |
| 2026-05-07 06:55 | 34.13463 | -114.27073 | 38952 ft | 468 kts | 82° |
| 2026-05-07 06:55 | 34.14069 | -114.19231 | 38956 ft | 469 kts | 82° |
| 2026-05-07 06:56 | 34.14670 | -114.11386 | 38954 ft | 469 kts | 82° |
| 2026-05-07 06:56 | 34.15265 | -114.03547 | 38959 ft | 469 kts | 82° |
| 2026-05-07 06:57 | 34.15855 | -113.95709 | 38960 ft | 469 kts | 82° |
| 2026-05-07 06:57 | 34.16437 | -113.87913 | 38961 ft | 469 kts | 82° |
| 2026-05-07 06:58 | 34.17017 | -113.80072 | 38963 ft | 469 kts | 82° |
| 2026-05-07 06:58 | 34.17593 | -113.72224 | 38978 ft | 469 kts | 82° |
| 2026-05-07 06:59 | 34.18166 | -113.64355 | 38969 ft | 470 kts | 82° |
| 2026-05-07 06:59 | 34.18733 | -113.56483 | 38975 ft | 470 kts | 82° |
| 2026-05-07 07:00 | 34.19296 | -113.48606 | 38980 ft | 470 kts | 82° |
| 2026-05-07 07:00 | 34.19849 | -113.40795 | 38986 ft | 470 kts | 82° |
| 2026-05-07 07:01 | 34.20398 | -113.32956 | 38982 ft | 467 kts | 82° |
| 2026-05-07 07:01 | 34.20941 | -113.25150 | 38981 ft | 466 kts | 83° |
| 2026-05-07 07:02 | 34.21479 | -113.17336 | 38982 ft | 467 kts | 83° |
| 2026-05-07 07:02 | 34.22013 | -113.09523 | 38996 ft | 467 kts | 83° |
| 2026-05-07 07:03 | 34.22542 | -113.01692 | 38992 ft | 468 kts | 83° |
| 2026-05-07 07:03 | 34.23066 | -112.93857 | 39007 ft | 468 kts | 84° |
| 2026-05-07 07:04 | 34.23583 | -112.86060 | 38997 ft | 468 kts | 84° |
| 2026-05-07 07:04 | 34.24097 | -112.78227 | 39009 ft | 468 kts | 84° |
| 2026-05-07 07:05 | 34.24608 | -112.70368 | 39018 ft | 469 kts | 84° |
| 2026-05-07 07:05 | 34.25114 | -112.62496 | 39016 ft | 470 kts | 84° |
| 2026-05-07 07:06 | 34.25616 | -112.54616 | 39019 ft | 470 kts | 84° |
| 2026-05-07 07:06 | 34.26114 | -112.46735 | 39018 ft | 470 kts | 84° |
| 2026-05-07 07:07 | 34.26604 | -112.38885 | 39017 ft | 472 kts | 84° |
| 2026-05-07 07:07 | 34.27094 | -112.30946 | 39030 ft | 474 kts | 84° |
| 2026-05-07 07:08 | 34.27580 | -112.22997 | 39028 ft | 474 kts | 84° |
| 2026-05-07 07:08 | 34.28061 | -112.15042 | 39033 ft | 474 kts | 84° |
| 2026-05-07 07:09 | 34.28537 | -112.07081 | 39031 ft | 476 kts | 85° |
| 2026-05-07 07:09 | 34.29011 | -111.99074 | 39047 ft | 478 kts | 85° |
| 2026-05-07 07:10 | 34.29480 | -111.91049 | 39052 ft | 478 kts | 85° |
| 2026-05-07 07:10 | 34.29944 | -111.83020 | 39054 ft | 478 kts | 85° |
| 2026-05-07 07:11 | 34.30404 | -111.74986 | 39052 ft | 479 kts | 86° |
| 2026-05-07 07:11 | 34.30856 | -111.66988 | 39063 ft | 481 kts | 86° |
| 2026-05-07 07:12 | 34.31307 | -111.58923 | 39059 ft | 481 kts | 86° |
| 2026-05-07 07:12 | 34.31530 | -111.54881 | 39160 ft | 481 kts | 86° |
| 2026-05-07 07:12 | 34.31753 | -111.50835 | 39172 ft | 481 kts | 86° |
| 2026-05-07 07:13 | 34.32193 | -111.42766 | 39208 ft | 481 kts | 86° |
| 2026-05-07 07:13 | 34.32629 | -111.34683 | 39214 ft | 481 kts | 86° |
| 2026-05-07 07:14 | 34.32635 | -111.26631 | 39206 ft | 481 kts | 91° |
| 2026-05-07 07:14 | 34.32387 | -111.18528 | 39180 ft | 482 kts | 92° |
| 2026-05-07 07:15 | 34.32096 | -111.10420 | 39149 ft | 482 kts | 92° |
| 2026-05-07 07:15 | 34.31803 | -111.02334 | 39113 ft | 481 kts | 92° |
| 2026-05-07 07:16 | 34.31511 | -110.94225 | 39079 ft | 481 kts | 92° |
| 2026-05-07 07:16 | 34.31217 | -110.86131 | 39066 ft | 482 kts | 92° |
| 2026-05-07 07:17 | 34.30920 | -110.78090 | 39057 ft | 482 kts | 93° |
| 2026-05-07 07:17 | 34.30613 | -110.69944 | 39066 ft | 487 kts | 93° |
| 2026-05-07 07:18 | 34.30298 | -110.61735 | 39063 ft | 488 kts | 93° |
| 2026-05-07 07:18 | 34.29978 | -110.53524 | 39061 ft | 488 kts | 93° |
| 2026-05-07 07:19 | 34.29653 | -110.45313 | 39082 ft | 488 kts | 93° |
| 2026-05-07 07:19 | 34.29323 | -110.37120 | 39127 ft | 491 kts | 93° |
| 2026-05-07 07:20 | 34.28984 | -110.28855 | 39158 ft | 492 kts | 93° |
| 2026-05-07 07:20 | 34.28640 | -110.20588 | 39209 ft | 492 kts | 93° |
| 2026-05-07 07:21 | 34.28290 | -110.12315 | 39253 ft | 492 kts | 94° |
| 2026-05-07 07:21 | 34.27933 | -110.04035 | 39268 ft | 495 kts | 94° |
| 2026-05-07 07:22 | 34.27569 | -109.95711 | 39269 ft | 496 kts | 94° |
| 2026-05-07 07:22 | 34.27199 | -109.87378 | 39254 ft | 496 kts | 94° |
| 2026-05-07 07:23 | 34.26824 | -109.79049 | 39197 ft | 496 kts | 94° |
| 2026-05-07 07:23 | 34.26441 | -109.70694 | 39141 ft | 500 kts | 94° |
| 2026-05-07 07:24 | 34.26329 | -109.62326 | 39113 ft | 502 kts | 85° |
| 2026-05-07 07:24 | 34.27373 | -109.53966 | 39159 ft | 503 kts | 81° |
| 2026-05-07 07:25 | 34.29301 | -109.41469 | 39207 ft | 504 kts | 80° |
| 2026-05-07 07:26 | 34.30597 | -109.33100 | 39209 ft | 506 kts | 80° |
| 2026-05-07 07:26 | 34.31872 | -109.24719 | 39193 ft | 506 kts | 81° |
| 2026-05-07 07:27 | 34.33125 | -109.16390 | 39159 ft | 506 kts | 81° |
| 2026-05-07 07:27 | 34.34387 | -109.07949 | 39108 ft | 508 kts | 81° |
| 2026-05-07 07:28 | 34.35644 | -108.99504 | 39057 ft | 511 kts | 81° |
| 2026-05-07 07:28 | 34.36894 | -108.91081 | 39052 ft | 511 kts | 81° |
| 2026-05-07 07:29 | 34.38146 | -108.82593 | 39054 ft | 511 kts | 81° |
| 2026-05-07 07:29 | 34.39392 | -108.74108 | 39059 ft | 512 kts | 81° |
| 2026-05-07 07:30 | 34.40635 | -108.65597 | 39062 ft | 515 kts | 81° |
| 2026-05-07 07:30 | 34.41876 | -108.57053 | 39071 ft | 515 kts | 81° |
| 2026-05-07 07:31 | 34.43105 | -108.48560 | 39067 ft | 515 kts | 81° |
| 2026-05-07 07:31 | 34.44336 | -108.40003 | 39071 ft | 515 kts | 81° |
| 2026-05-07 07:32 | 34.45566 | -108.31408 | 39079 ft | 518 kts | 81° |
| 2026-05-07 07:32 | 34.46794 | -108.22784 | 39079 ft | 519 kts | 81° |
| 2026-05-07 07:33 | 34.48010 | -108.14200 | 39084 ft | 519 kts | 81° |
| 2026-05-07 07:33 | 34.49225 | -108.05574 | 39085 ft | 519 kts | 81° |
| 2026-05-07 07:34 | 34.49791 | -107.96879 | 39082 ft | 516 kts | 93° |
| 2026-05-07 07:34 | 34.49487 | -107.88165 | 39074 ft | 516 kts | 95° |
| 2026-05-07 07:35 | 34.49044 | -107.79528 | 39079 ft | 516 kts | 96° |
| 2026-05-07 07:35 | 34.48585 | -107.70831 | 39076 ft | 517 kts | 96° |
| 2026-05-07 07:36 | 34.48210 | -107.63580 | 39077 ft | 519 kts | 95° |
| 2026-05-07 07:36 | 34.47688 | -107.53412 | 39071 ft | 520 kts | 95° |
| 2026-05-07 07:37 | 34.47308 | -107.46079 | 39058 ft | 521 kts | 96° |
| 2026-05-07 07:37 | 34.46849 | -107.37331 | 39060 ft | 524 kts | 96° |
| 2026-05-07 07:38 | 34.46378 | -107.28488 | 39058 ft | 527 kts | 96° |
| 2026-05-07 07:38 | 34.45900 | -107.19618 | 39058 ft | 528 kts | 96° |
| 2026-05-07 07:39 | 34.45415 | -107.10738 | 39058 ft | 528 kts | 96° |
| 2026-05-07 07:39 | 34.44923 | -107.01850 | 39059 ft | 528 kts | 97° |
| 2026-05-07 07:40 | 34.44422 | -106.92931 | 39059 ft | 531 kts | 97° |
| 2026-05-07 07:40 | 34.43914 | -106.84010 | 39070 ft | 531 kts | 97° |
| 2026-05-07 07:41 | 34.43403 | -106.75137 | 39089 ft | 531 kts | 97° |
| 2026-05-07 07:41 | 34.42883 | -106.66216 | 39090 ft | 532 kts | 97° |
| 2026-05-07 07:42 | 34.42351 | -106.57245 | 39125 ft | 536 kts | 97° |
| 2026-05-07 07:42 | 34.41810 | -106.48203 | 39144 ft | 536 kts | 97° |
| 2026-05-07 07:43 | 34.41268 | -106.39239 | 39147 ft | 537 kts | 97° |
| 2026-05-07 07:43 | 34.40717 | -106.30227 | 39156 ft | 538 kts | 97° |
| 2026-05-07 07:44 | 34.40151 | -106.21134 | 39148 ft | 544 kts | 98° |
| 2026-05-07 07:44 | 34.39568 | -106.11916 | 39170 ft | 553 kts | 98° |
| 2026-05-07 07:45 | 34.38977 | -106.02598 | 39167 ft | 554 kts | 98° |
| 2026-05-07 07:45 | 34.38381 | -105.93281 | 39164 ft | 555 kts | 98° |
| 2026-05-07 07:46 | 34.37773 | -105.83947 | 39171 ft | 556 kts | 98° |
| 2026-05-07 07:46 | 34.37162 | -105.74667 | 39176 ft | 557 kts | 98° |
| 2026-05-07 07:47 | 34.36801 | -105.65289 | 39176 ft | 560 kts | 93° |
| 2026-05-07 07:47 | 34.36933 | -105.55851 | 39187 ft | 563 kts | 92° |
| 2026-05-07 07:48 | 34.37144 | -105.46360 | 39184 ft | 564 kts | 91° |
| 2026-05-07 07:48 | 34.37354 | -105.36862 | 39186 ft | 564 kts | 91° |
| 2026-05-07 07:49 | 34.37545 | -105.27353 | 39186 ft | 565 kts | 92° |
| 2026-05-07 07:49 | 34.37722 | -105.17797 | 39170 ft | 569 kts | 92° |
| 2026-05-07 07:50 | 34.37891 | -105.08256 | 39169 ft | 570 kts | 92° |
| 2026-05-07 07:50 | 34.38056 | -104.98642 | 39158 ft | 571 kts | 92° |
| 2026-05-07 07:51 | 34.38212 | -104.89040 | 39151 ft | 571 kts | 92° |
| 2026-05-07 07:51 | 34.38361 | -104.79373 | 39151 ft | 576 kts | 92° |
| 2026-05-07 07:52 | 34.38503 | -104.69718 | 39150 ft | 576 kts | 92° |
| 2026-05-07 07:52 | 34.38639 | -104.60023 | 39141 ft | 576 kts | 92° |
| 2026-05-07 07:53 | 34.38767 | -104.50317 | 39139 ft | 576 kts | 92° |
| 2026-05-07 07:53 | 34.38887 | -104.40621 | 39110 ft | 576 kts | 92° |
| 2026-05-07 07:54 | 34.38998 | -104.30905 | 39126 ft | 579 kts | 93° |
| 2026-05-07 07:54 | 34.39103 | -104.21125 | 39116 ft | 580 kts | 93° |
| 2026-05-07 07:55 | 34.39200 | -104.11379 | 39119 ft | 583 kts | 93° |
| 2026-05-07 07:55 | 34.39291 | -104.01539 | 39113 ft | 584 kts | 93° |
| 2026-05-07 07:56 | 34.39374 | -103.91681 | 39255 ft | 585 kts | 93° |
| 2026-05-07 07:56 | 34.39413 | -103.86755 | 39470 ft | 584 kts | 93° |
| 2026-05-07 07:56 | 34.39449 | -103.81847 | 39667 ft | 583 kts | 93° |
| 2026-05-07 07:56 | 34.39484 | -103.76923 | 39778 ft | 585 kts | 93° |
| 2026-05-07 07:57 | 34.39516 | -103.72008 | 39963 ft | 584 kts | 93° |
| 2026-05-07 07:57 | 34.39546 | -103.67136 | 40185 ft | 583 kts | 93° |
| 2026-05-07 07:57 | 34.39575 | -103.62227 | 40412 ft | 582 kts | 93° |
| 2026-05-07 07:57 | 34.39601 | -103.57334 | 40619 ft | 581 kts | 93° |
| 2026-05-07 07:58 | 34.39626 | -103.52443 | 40810 ft | 580 kts | 93° |
| 2026-05-07 07:58 | 34.39648 | -103.47562 | 40985 ft | 579 kts | 93° |
| 2026-05-07 07:58 | 34.39669 | -103.42682 | 41136 ft | 579 kts | 93° |
| 2026-05-07 07:59 | 34.39703 | -103.32975 | 41231 ft | 579 kts | 93° |
| 2026-05-07 07:59 | 34.39730 | -103.23208 | 41236 ft | 579 kts | 93° |
| 2026-05-07 08:00 | 34.39749 | -103.13457 | 41219 ft | 579 kts | 93° |
| 2026-05-07 08:00 | 34.39761 | -103.03757 | 41250 ft | 579 kts | 93° |
| 2026-05-07 08:01 | 34.39765 | -102.94000 | 41249 ft | 579 kts | 93° |
| 2026-05-07 08:01 | 34.39762 | -102.84264 | 41246 ft | 579 kts | 93° |
| 2026-05-07 08:02 | 34.39751 | -102.74508 | 41225 ft | 579 kts | 94° |
| 2026-05-07 08:02 | 34.39731 | -102.64746 | 41215 ft | 579 kts | 94° |
| 2026-05-07 08:03 | 34.39704 | -102.54998 | 41203 ft | 579 kts | 94° |
| 2026-05-07 08:03 | 34.39670 | -102.45303 | 41192 ft | 579 kts | 94° |
| 2026-05-07 08:04 | 34.39628 | -102.35553 | 41190 ft | 578 kts | 94° |
| 2026-05-07 08:04 | 34.39578 | -102.25813 | 41187 ft | 578 kts | 94° |
| 2026-05-07 08:05 | 34.39520 | -102.16071 | 41185 ft | 578 kts | 94° |
| 2026-05-07 08:05 | 34.39454 | -102.06306 | 41184 ft | 578 kts | 94° |
| 2026-05-07 08:06 | 34.39381 | -101.96626 | 41193 ft | 580 kts | 95° |
| 2026-05-07 08:06 | 34.39299 | -101.86829 | 41201 ft | 582 kts | 95° |
| 2026-05-07 08:07 | 34.39210 | -101.77007 | 41205 ft | 582 kts | 95° |
| 2026-05-07 08:07 | 34.39115 | -101.67211 | 41213 ft | 582 kts | 95° |
| 2026-05-07 08:08 | 34.39010 | -101.57466 | 41198 ft | 583 kts | 96° |
| 2026-05-07 08:08 | 34.38897 | -101.47661 | 41186 ft | 583 kts | 96° |
| 2026-05-07 08:09 | 34.38777 | -101.37848 | 41170 ft | 583 kts | 96° |
| 2026-05-07 08:09 | 34.38649 | -101.28029 | 41169 ft | 583 kts | 96° |
| 2026-05-07 08:10 | 34.38511 | -101.18187 | 41167 ft | 586 kts | 96° |
| 2026-05-07 08:10 | 34.38365 | -101.08298 | 41167 ft | 587 kts | 96° |
| 2026-05-07 08:11 | 34.38213 | -100.98413 | 41171 ft | 587 kts | 96° |
| 2026-05-07 08:11 | 34.38054 | -100.88588 | 41170 ft | 587 kts | 96° |
| 2026-05-07 08:12 | 34.37885 | -100.78720 | 41171 ft | 587 kts | 96° |
| 2026-05-07 08:12 | 34.37709 | -100.68843 | 41169 ft | 586 kts | 96° |
| 2026-05-07 08:13 | 34.37524 | -100.58952 | 41163 ft | 586 kts | 96° |
| 2026-05-07 08:13 | 34.37330 | -100.49070 | 41165 ft | 589 kts | 97° |
| 2026-05-07 08:14 | 34.37127 | -100.39151 | 41167 ft | 590 kts | 97° |
| 2026-05-07 08:14 | 34.36920 | -100.29270 | 41220 ft | 590 kts | 97° |
| 2026-05-07 08:15 | 34.36620 | -100.19344 | 41232 ft | 589 kts | 98° |
| 2026-05-07 08:15 | 34.36198 | -100.09424 | 41202 ft | 591 kts | 98° |
| 2026-05-07 08:16 | 34.35771 | -99.99488 | 41187 ft | 592 kts | 98° |
| 2026-05-07 08:16 | 34.35360 | -99.89541 | 41164 ft | 591 kts | 98° |
| 2026-05-07 08:17 | 34.34951 | -99.79599 | 41158 ft | 592 kts | 98° |
| 2026-05-07 08:17 | 34.34533 | -99.69626 | 41146 ft | 593 kts | 98° |
| 2026-05-07 08:18 | 34.34105 | -99.59635 | 41149 ft | 594 kts | 98° |
| 2026-05-07 08:18 | 34.33671 | -99.49709 | 41142 ft | 594 kts | 98° |
| 2026-05-07 08:19 | 34.33226 | -99.39729 | 41143 ft | 595 kts | 98° |
| 2026-05-07 08:19 | 34.32770 | -99.29721 | 41140 ft | 596 kts | 98° |
| 2026-05-07 08:20 | 34.32308 | -99.19709 | 41141 ft | 596 kts | 98° |
| 2026-05-07 08:20 | 34.31841 | -99.09760 | 41145 ft | 596 kts | 99° |
| 2026-05-07 08:21 | 34.31361 | -98.99748 | 41146 ft | 597 kts | 99° |
| 2026-05-07 08:21 | 34.30872 | -98.89704 | 41146 ft | 598 kts | 99° |
| 2026-05-07 08:22 | 34.30375 | -98.79653 | 41143 ft | 598 kts | 99° |
| 2026-05-07 08:22 | 34.29956 | -98.71294 | 41150 ft | 598 kts | 99° |
| 2026-05-07 08:23 | 34.29359 | -98.59617 | 41150 ft | 599 kts | 99° |
| 2026-05-07 08:23 | 34.28920 | -98.51176 | 41150 ft | 600 kts | 99° |
| 2026-05-07 08:24 | 34.28394 | -98.41180 | 41152 ft | 599 kts | 99° |
| 2026-05-07 08:24 | 34.27856 | -98.31101 | 41155 ft | 600 kts | 99° |
| 2026-05-07 08:25 | 34.27309 | -98.21037 | 41160 ft | 601 kts | 99° |
| 2026-05-07 08:25 | 34.26753 | -98.10941 | 41153 ft | 601 kts | 99° |
| 2026-05-07 08:26 | 34.25905 | -97.95827 | 41146 ft | 601 kts | 99° |
| 2026-05-07 08:26 | 34.25330 | -97.85781 | 41145 ft | 602 kts | 99° |
| 2026-05-07 08:27 | 34.24740 | -97.75611 | 41146 ft | 602 kts | 99° |
| 2026-05-07 08:27 | 34.24150 | -97.65573 | 41140 ft | 602 kts | 99° |
| 2026-05-07 08:28 | 34.23547 | -97.55466 | 41128 ft | 601 kts | 99° |
| 2026-05-07 08:28 | 34.22941 | -97.45425 | 41136 ft | 601 kts | 99° |
| 2026-05-07 08:29 | 34.22322 | -97.35347 | 41138 ft | 601 kts | 100° |
| 2026-05-07 08:29 | 34.21695 | -97.25268 | 41135 ft | 601 kts | 100° |
| 2026-05-07 08:30 | 34.21269 | -97.15176 | 41149 ft | 605 kts | 94° |
| 2026-05-07 08:30 | 34.21414 | -97.05056 | 41147 ft | 606 kts | 92° |
| 2026-05-07 08:31 | 34.21665 | -96.94864 | 41147 ft | 606 kts | 92° |
| 2026-05-07 08:31 | 34.21923 | -96.84669 | 41143 ft | 606 kts | 92° |
| 2026-05-07 08:32 | 34.22157 | -96.74479 | 41135 ft | 607 kts | 92° |
| 2026-05-07 08:32 | 34.22372 | -96.64340 | 41134 ft | 607 kts | 92° |
| 2026-05-07 08:33 | 34.22579 | -96.54134 | 41138 ft | 607 kts | 92° |
| 2026-05-07 08:33 | 34.22778 | -96.43933 | 41136 ft | 607 kts | 92° |
| 2026-05-07 08:34 | 34.22969 | -96.33721 | 41138 ft | 607 kts | 92° |
| 2026-05-07 08:34 | 34.23151 | -96.23572 | 41139 ft | 607 kts | 92° |
| 2026-05-07 08:35 | 34.23327 | -96.13305 | 41135 ft | 607 kts | 92° |
| 2026-05-07 08:35 | 34.23492 | -96.03163 | 41135 ft | 607 kts | 92° |
| 2026-05-07 08:36 | 34.23649 | -95.92950 | 41127 ft | 608 kts | 92° |
| 2026-05-07 08:36 | 34.23799 | -95.82703 | 41127 ft | 608 kts | 93° |
| 2026-05-07 08:37 | 34.23940 | -95.72482 | 41124 ft | 608 kts | 93° |
| 2026-05-07 08:37 | 34.24071 | -95.62307 | 41118 ft | 608 kts | 93° |
| 2026-05-07 08:38 | 34.24195 | -95.52078 | 41116 ft | 608 kts | 93° |
| 2026-05-07 08:38 | 34.24311 | -95.41838 | 41114 ft | 608 kts | 93° |
| 2026-05-07 08:39 | 34.24417 | -95.31598 | 41100 ft | 608 kts | 93° |
| 2026-05-07 08:39 | 34.24516 | -95.21366 | 41103 ft | 609 kts | 93° |
| 2026-05-07 08:40 | 34.24606 | -95.11205 | 41094 ft | 609 kts | 93° |
| 2026-05-07 08:40 | 34.24687 | -95.00974 | 41089 ft | 609 kts | 93° |
| 2026-05-07 08:41 | 34.24760 | -94.90736 | 41087 ft | 609 kts | 93° |
| 2026-05-07 08:41 | 34.24825 | -94.80487 | 41089 ft | 609 kts | 93° |
| 2026-05-07 08:42 | 34.24881 | -94.70329 | 41083 ft | 609 kts | 93° |
| 2026-05-07 08:42 | 34.24930 | -94.60093 | 41086 ft | 609 kts | 93° |
| 2026-05-07 08:43 | 34.24968 | -94.49851 | 41086 ft | 609 kts | 93° |
| 2026-05-07 08:43 | 34.24998 | -94.39611 | 41089 ft | 609 kts | 93° |
| 2026-05-07 08:44 | 34.25257 | -94.29371 | 41090 ft | 612 kts | 86° |
| 2026-05-07 08:44 | 34.26089 | -94.19130 | 41080 ft | 612 kts | 87° |
| 2026-05-07 08:45 | 34.26842 | -94.08940 | 41090 ft | 612 kts | 87° |
| 2026-05-07 08:45 | 34.27546 | -93.98667 | 41090 ft | 611 kts | 88° |
| 2026-05-07 08:46 | 34.28229 | -93.88418 | 41091 ft | 611 kts | 88° |
| 2026-05-07 08:46 | 34.28903 | -93.78159 | 41091 ft | 611 kts | 88° |
| 2026-05-07 08:47 | 34.29569 | -93.67893 | 41087 ft | 611 kts | 88° |
| 2026-05-07 08:47 | 34.30220 | -93.57709 | 41091 ft | 611 kts | 88° |
| 2026-05-07 08:48 | 34.30867 | -93.47457 | 41102 ft | 611 kts | 88° |
| 2026-05-07 08:48 | 34.31506 | -93.37202 | 41099 ft | 611 kts | 88° |
| 2026-05-07 08:49 | 34.32137 | -93.26935 | 41102 ft | 611 kts | 88° |
| 2026-05-07 08:49 | 34.32759 | -93.16667 | 41100 ft | 611 kts | 88° |
| 2026-05-07 08:50 | 34.33372 | -93.06425 | 41098 ft | 611 kts | 88° |
| 2026-05-07 08:50 | 34.33973 | -92.96223 | 41101 ft | 610 kts | 88° |
| 2026-05-07 08:51 | 34.34569 | -92.85962 | 41104 ft | 610 kts | 88° |
| 2026-05-07 08:51 | 34.35156 | -92.75712 | 41103 ft | 610 kts | 88° |
| 2026-05-07 08:52 | 34.35734 | -92.65454 | 41099 ft | 610 kts | 88° |
| 2026-05-07 08:52 | 34.36304 | -92.55205 | 41099 ft | 610 kts | 88° |
| 2026-05-07 08:53 | 34.36864 | -92.44954 | 41105 ft | 610 kts | 88° |
| 2026-05-07 08:53 | 34.37416 | -92.34710 | 41091 ft | 610 kts | 88° |
| 2026-05-07 08:54 | 34.37960 | -92.24453 | 41093 ft | 610 kts | 88° |
| 2026-05-07 08:54 | 34.38492 | -92.14270 | 41094 ft | 609 kts | 89° |
| 2026-05-07 08:55 | 34.39018 | -92.04033 | 41092 ft | 609 kts | 89° |
| 2026-05-07 08:55 | 34.39535 | -91.93793 | 41087 ft | 609 kts | 89° |
| 2026-05-07 08:56 | 34.40044 | -91.83557 | 41091 ft | 609 kts | 89° |
| 2026-05-07 08:56 | 34.40544 | -91.73312 | 41092 ft | 608 kts | 89° |
| 2026-05-07 08:57 | 34.41036 | -91.63074 | 41089 ft | 608 kts | 89° |
| 2026-05-07 08:57 | 34.41516 | -91.52883 | 41094 ft | 608 kts | 89° |
| 2026-05-07 08:58 | 34.41990 | -91.42656 | 41088 ft | 608 kts | 89° |
| 2026-05-07 08:58 | 34.42456 | -91.32428 | 41086 ft | 607 kts | 89° |
| 2026-05-07 08:59 | 34.42912 | -91.22200 | 41080 ft | 607 kts | 89° |
| 2026-05-07 08:59 | 34.43358 | -91.12027 | 41071 ft | 607 kts | 89° |
| 2026-05-07 09:00 | 34.43797 | -91.01818 | 41076 ft | 606 kts | 89° |
| 2026-05-07 09:00 | 34.44228 | -90.91593 | 41072 ft | 606 kts | 89° |
| 2026-05-07 09:01 | 34.44649 | -90.81391 | 41067 ft | 606 kts | 89° |
| 2026-05-07 09:01 | 34.45060 | -90.71264 | 41064 ft | 606 kts | 89° |
| 2026-05-07 09:02 | 34.45464 | -90.61066 | 41053 ft | 604 kts | 89° |
| 2026-05-07 09:02 | 34.45858 | -90.50905 | 41060 ft | 604 kts | 89° |
| 2026-05-07 09:03 | 34.46244 | -90.40738 | 41058 ft | 604 kts | 90° |
| 2026-05-07 09:03 | 34.46623 | -90.30568 | 41054 ft | 603 kts | 90° |
| 2026-05-07 09:04 | 34.46991 | -90.20420 | 41051 ft | 601 kts | 90° |
| 2026-05-07 09:04 | 34.47351 | -90.10297 | 41045 ft | 601 kts | 90° |
| 2026-05-07 09:05 | 34.47701 | -90.00176 | 41083 ft | 601 kts | 90° |
| 2026-05-07 09:05 | 34.48044 | -89.90033 | 41042 ft | 603 kts | 90° |
| 2026-05-07 09:06 | 34.48378 | -89.79923 | 41045 ft | 603 kts | 90° |
| 2026-05-07 09:06 | 34.48705 | -89.69766 | 41045 ft | 603 kts | 90° |
| 2026-05-07 09:07 | 34.48971 | -89.61309 | 41026 ft | 603 kts | 90° |
| 2026-05-07 09:07 | 34.49283 | -89.51142 | 41024 ft | 603 kts | 90° |
| 2026-05-07 09:08 | 34.49586 | -89.40981 | 41034 ft | 603 kts | 90° |
| 2026-05-07 09:08 | 34.49881 | -89.30812 | 41025 ft | 603 kts | 91° |
| 2026-05-07 09:09 | 34.50168 | -89.20651 | 41013 ft | 603 kts | 91° |
| 2026-05-07 09:09 | 34.50446 | -89.10473 | 41020 ft | 602 kts | 91° |
| 2026-05-07 09:10 | 34.50715 | -89.00334 | 41007 ft | 602 kts | 91° |
| 2026-05-07 09:10 | 34.50976 | -88.90178 | 41002 ft | 602 kts | 91° |
| 2026-05-07 09:11 | 34.51228 | -88.80039 | 41001 ft | 601 kts | 91° |
| 2026-05-07 09:11 | 34.51470 | -88.69974 | 41004 ft | 600 kts | 91° |
| 2026-05-07 09:12 | 34.51705 | -88.59850 | 40998 ft | 600 kts | 91° |
| 2026-05-07 09:12 | 34.51931 | -88.49733 | 41007 ft | 600 kts | 92° |
| 2026-05-07 09:13 | 34.52150 | -88.39616 | 41001 ft | 599 kts | 92° |
| 2026-05-07 09:13 | 34.52358 | -88.29589 | 41001 ft | 598 kts | 92° |
| 2026-05-07 09:14 | 34.52559 | -88.19494 | 41001 ft | 598 kts | 92° |
| 2026-05-07 09:14 | 34.52751 | -88.09413 | 40995 ft | 598 kts | 92° |
| 2026-05-07 09:15 | 34.52935 | -87.99320 | 40996 ft | 597 kts | 92° |
| 2026-05-07 09:15 | 34.53110 | -87.89306 | 40998 ft | 597 kts | 92° |
| 2026-05-07 09:16 | 34.53278 | -87.79235 | 40997 ft | 597 kts | 92° |
| 2026-05-07 09:16 | 34.53437 | -87.69144 | 41001 ft | 597 kts | 92° |
| 2026-05-07 09:17 | 34.53588 | -87.59074 | 41003 ft | 597 kts | 92° |
| 2026-05-07 09:17 | 34.53731 | -87.49012 | 40996 ft | 597 kts | 92° |
| 2026-05-07 09:18 | 34.53865 | -87.38984 | 40987 ft | 597 kts | 92° |
| 2026-05-07 09:18 | 34.53991 | -87.28906 | 40970 ft | 597 kts | 92° |
| 2026-05-07 09:19 | 34.54109 | -87.18849 | 40969 ft | 596 kts | 93° |
| 2026-05-07 09:19 | 34.54219 | -87.08801 | 40989 ft | 595 kts | 93° |
| 2026-05-07 09:20 | 34.54316 | -86.98806 | 40994 ft | 595 kts | 93° |
| 2026-05-07 09:20 | 34.54070 | -86.93820 | 40983 ft | 588 kts | 104° |
| 2026-05-07 09:20 | 34.53165 | -86.89042 | 40994 ft | 577 kts | 114° |
| 2026-05-07 09:21 | 34.50774 | -86.79777 | 40994 ft | 575 kts | 115° |
| 2026-05-07 09:21 | 34.48342 | -86.70520 | 40986 ft | 576 kts | 115° |
| 2026-05-07 09:22 | 34.45917 | -86.61268 | 40974 ft | 576 kts | 115° |
| 2026-05-07 09:22 | 34.43500 | -86.52063 | 40952 ft | 576 kts | 115° |
| 2026-05-07 09:23 | 34.41064 | -86.42812 | 40956 ft | 575 kts | 115° |
| 2026-05-07 09:23 | 34.38632 | -86.33604 | 40958 ft | 574 kts | 115° |
| 2026-05-07 09:24 | 34.36190 | -86.24393 | 40928 ft | 574 kts | 115° |
| 2026-05-07 09:24 | 34.33754 | -86.15226 | 40422 ft | 569 kts | 115° |
| 2026-05-07 09:25 | 34.32551 | -86.10666 | 39821 ft | 569 kts | 115° |
| 2026-05-07 09:25 | 34.31373 | -86.06094 | 39511 ft | 569 kts | 114° |
| 2026-05-07 09:25 | 34.30201 | -86.01545 | 39023 ft | 566 kts | 115° |
| 2026-05-07 09:25 | 34.29070 | -85.97169 | 38394 ft | 566 kts | 115° |
| 2026-05-07 09:26 | 34.28113 | -85.93485 | 37814 ft | 566 kts | 115° |
| 2026-05-07 09:26 | 34.26946 | -85.88998 | 37145 ft | 565 kts | 115° |
| 2026-05-07 09:26 | 34.25765 | -85.84471 | 36478 ft | 565 kts | 115° |
| 2026-05-07 09:26 | 34.24581 | -85.79939 | 35779 ft | 565 kts | 115° |
| 2026-05-07 09:27 | 34.23389 | -85.75389 | 35055 ft | 566 kts | 115° |
| 2026-05-07 09:27 | 34.22199 | -85.70853 | 34254 ft | 569 kts | 115° |
| 2026-05-07 09:27 | 34.19801 | -85.61742 | 32482 ft | 574 kts | 114° |
| 2026-05-07 09:28 | 34.18592 | -85.57153 | 31595 ft | 575 kts | 114° |
| 2026-05-07 09:28 | 34.17372 | -85.52533 | 30691 ft | 578 kts | 114° |
| 2026-05-07 09:28 | 34.16146 | -85.47898 | 29694 ft | 580 kts | 114° |
| 2026-05-07 09:28 | 34.14917 | -85.43258 | 28716 ft | 581 kts | 113° |
| 2026-05-07 09:29 | 34.13694 | -85.38635 | 28017 ft | 574 kts | 113° |
| 2026-05-07 09:29 | 34.12502 | -85.34054 | 27332 ft | 569 kts | 112° |
| 2026-05-07 09:29 | 34.11336 | -85.29523 | 26682 ft | 563 kts | 112° |
| 2026-05-07 09:29 | 34.10176 | -85.25033 | 26007 ft | 558 kts | 112° |
| 2026-05-07 09:30 | 34.09023 | -85.20584 | 25336 ft | 554 kts | 112° |
| 2026-05-07 09:30 | 34.07875 | -85.16171 | 24657 ft | 550 kts | 112° |
| 2026-05-07 09:30 | 34.06732 | -85.11785 | 23998 ft | 546 kts | 112° |
| 2026-05-07 09:30 | 34.05497 | -85.07484 | 23298 ft | 536 kts | 119° |
| 2026-05-07 09:31 | 34.03633 | -85.03689 | 22594 ft | 516 kts | 135° |
| 2026-05-07 09:31 | 34.01173 | -85.00674 | 21986 ft | 495 kts | 148° |
| 2026-05-07 09:31 | 33.98533 | -84.98067 | 21386 ft | 487 kts | 149° |
| 2026-05-07 09:31 | 33.95928 | -84.95505 | 20775 ft | 481 kts | 148° |
| 2026-05-07 09:32 | 33.93374 | -84.92943 | 20175 ft | 476 kts | 148° |
| 2026-05-07 09:32 | 33.90852 | -84.90380 | 19532 ft | 472 kts | 148° |
| 2026-05-07 09:32 | 33.88357 | -84.87826 | 18862 ft | 469 kts | 147° |
| 2026-05-07 09:32 | 33.85882 | -84.85284 | 18209 ft | 466 kts | 147° |
| 2026-05-07 09:33 | 33.83454 | -84.82784 | 17466 ft | 463 kts | 147° |
| 2026-05-07 09:33 | 33.81022 | -84.80277 | 16827 ft | 457 kts | 146° |
| 2026-05-07 09:33 | 33.78625 | -84.77805 | 16209 ft | 451 kts | 146° |
| 2026-05-07 09:33 | 33.76264 | -84.75331 | 15546 ft | 449 kts | 143° |
| 2026-05-07 09:34 | 33.74286 | -84.72398 | 14877 ft | 458 kts | 125° |
| 2026-05-07 09:34 | 33.73086 | -84.68844 | 14203 ft | 462 kts | 105° |
| 2026-05-07 09:34 | 33.72788 | -84.65013 | 13501 ft | 461 kts | 89° |
| 2026-05-07 09:34 | 33.72952 | -84.61202 | 12811 ft | 455 kts | 87° |
| 2026-05-07 09:35 | 33.73104 | -84.57437 | 12173 ft | 448 kts | 88° |
| 2026-05-07 09:35 | 33.73195 | -84.53726 | 11552 ft | 441 kts | 89° |
| 2026-05-07 09:35 | 33.73243 | -84.50054 | 10987 ft | 434 kts | 90° |
| 2026-05-07 09:35 | 33.73268 | -84.46500 | 10842 ft | 414 kts | 90° |
| 2026-05-07 09:36 | 33.73281 | -84.43116 | 10705 ft | 396 kts | 91° |
| 2026-05-07 09:36 | 33.73295 | -84.39886 | 10577 ft | 379 kts | 91° |
| 2026-05-07 09:36 | 33.73299 | -84.36820 | 10395 ft | 365 kts | 91° |
| 2026-05-07 09:36 | 33.73300 | -84.33833 | 10240 ft | 351 kts | 91° |
| 2026-05-07 09:37 | 33.73299 | -84.30946 | 10034 ft | 341 kts | 91° |
| 2026-05-07 09:37 | 33.73298 | -84.28119 | 9698 ft | 336 kts | 91° |
| 2026-05-07 09:37 | 33.73302 | -84.25329 | 9370 ft | 332 kts | 90° |
| 2026-05-07 09:37 | 33.73305 | -84.22559 | 9057 ft | 330 kts | 90° |
| 2026-05-07 09:38 | 33.73307 | -84.19799 | 8776 ft | 330 kts | 90° |
| 2026-05-07 09:38 | 33.73309 | -84.17050 | 8470 ft | 328 kts | 91° |
| 2026-05-07 09:38 | 33.73310 | -84.14321 | 8176 ft | 326 kts | 91° |
| 2026-05-07 09:38 | 33.73316 | -84.11603 | 7868 ft | 324 kts | 91° |
| 2026-05-07 09:39 | 33.73319 | -84.08902 | 7576 ft | 322 kts | 91° |
| 2026-05-07 09:39 | 33.73320 | -84.06221 | 7273 ft | 320 kts | 91° |
| 2026-05-07 09:39 | 33.73275 | -84.03554 | 6967 ft | 319 kts | 97° |
| 2026-05-07 09:39 | 33.72579 | -84.01090 | 6672 ft | 308 kts | 129° |
| 2026-05-07 09:40 | 33.71056 | -83.99440 | 6389 ft | 287 kts | 162° |
| 2026-05-07 09:40 | 33.69190 | -83.99003 | 6133 ft | 267 kts | 192° |
| 2026-05-07 09:40 | 33.67468 | -83.99608 | 5883 ft | 254 kts | 215° |
| 2026-05-07 09:40 | 33.66182 | -84.00932 | 5653 ft | 244 kts | 236° |
| 2026-05-07 09:41 | 33.65439 | -84.02711 | 5476 ft | 234 kts | 252° |
| 2026-05-07 09:41 | 33.65094 | -84.04574 | 5250 ft | 225 kts | 262° |
| 2026-05-07 09:41 | 33.64973 | -84.06405 | 5107 ft | 218 kts | 266° |
| 2026-05-07 09:41 | 33.64949 | -84.08214 | 5001 ft | 217 kts | 268° |
| 2026-05-07 09:42 | 33.64952 | -84.10030 | 4983 ft | 217 kts | 268° |
| 2026-05-07 09:42 | 33.64956 | -84.11845 | 4979 ft | 217 kts | 268° |
| 2026-05-07 09:42 | 33.64959 | -84.13655 | 4985 ft | 218 kts | 268° |
| 2026-05-07 09:42 | 33.64962 | -84.15438 | 4971 ft | 205 kts | 268° |
| 2026-05-07 09:43 | 33.64962 | -84.17105 | 4845 ft | 195 kts | 268° |
| 2026-05-07 09:43 | 33.64957 | -84.18707 | 4613 ft | 189 kts | 267° |
| 2026-05-07 09:43 | 33.64957 | -84.20275 | 4323 ft | 186 kts | 268° |
| 2026-05-07 09:43 | 33.64958 | -84.21812 | 4075 ft | 181 kts | 268° |
| 2026-05-07 09:44 | 33.64958 | -84.23262 | 3836 ft | 171 kts | 266° |
| 2026-05-07 09:44 | 33.64957 | -84.24643 | 3603 ft | 160 kts | 269° |
| 2026-05-07 09:44 | 33.64957 | -84.25914 | 3447 ft | 144 kts | 271° |
| 2026-05-07 09:44 | 33.64957 | -84.27078 | 3246 ft | 136 kts | 270° |
| 2026-05-07 09:45 | 33.64956 | -84.28174 | 3077 ft | 127 kts | 270° |
| 2026-05-07 09:45 | 33.64957 | -84.29221 | 2905 ft | 125 kts | 269° |
| 2026-05-07 09:45 | 33.64955 | -84.30277 | 2748 ft | 128 kts | 270° |
| 2026-05-07 09:45 | 33.64955 | -84.31359 | 2572 ft | 131 kts | 270° |
| 2026-05-07 09:46 | 33.64955 | -84.32454 | 2413 ft | 132 kts | 269° |
| 2026-05-07 09:46 | 33.64955 | -84.33549 | 2231 ft | 131 kts | 269° |
| 2026-05-07 09:46 | 33.64955 | -84.34647 | 2062 ft | 132 kts | 270° |
| 2026-05-07 09:46 | 33.64955 | -84.35749 | 1882 ft | 131 kts | 268° |
| 2026-05-07 09:47 | 33.64955 | -84.36848 | 1717 ft | 132 kts | 269° |
| 2026-05-07 09:47 | 33.64966 | -84.37954 | 1481 ft | 132 kts | 270° |
| 2026-05-07 09:47 | 33.64977 | -84.39078 | 1357 ft | 139 kts | 268° |
| 2026-05-07 09:47 | 33.64956 | -84.40237 | 1154 ft | 139 kts | 265° |
| 2026-05-07 09:48 | 33.64954 | -84.41394 | 1013 ft | 137 kts | 268° |
| 2026-05-07 09:48 | 33.64951 | -84.42330 | 1013 ft | 86 kts | 270° |
| 2026-05-07 09:48 | 33.64954 | -84.42842 | 1012 ft | 43 kts | 270° |
| 2026-05-07 09:48 | 33.64938 | -84.43130 | 1013 ft | 30 kts | 252° |
| 2026-05-07 09:49 | 33.64871 | -84.43310 | 1013 ft | 13 kts | 244° |
| 2026-05-07 09:49 | 33.64844 | -84.43403 | 1013 ft | 11 kts | 265° |
| 2026-05-07 09:49 | 33.64837 | -84.43487 | 1013 ft | 9 kts | 252° |
| 2026-05-07 09:49 | 33.64804 | -84.43534 | 1013 ft | 7 kts | 218° |
| 2026-05-07 09:50 | 33.64760 | -84.43573 | 1013 ft | 9 kts | 217° |
| 2026-05-07 09:50 | 33.64693 | -84.43619 | 1012 ft | 13 kts | 209° |
| 2026-05-07 09:50 | 33.64613 | -84.43672 | 1012 ft | 12 kts | 208° |
| 2026-05-07 09:50 | 33.64568 | -84.43667 | 1013 ft | 8 kts | 140° |
| 2026-05-07 09:51 | 33.64541 | -84.43554 | 1013 ft | 19 kts | 90° |
| 2026-05-07 09:51 | 33.64543 | -84.43446 | 1013 ft | 19 kts | 89° |
| 2026-05-07 09:51 | 33.64543 | -84.43294 | 1013 ft | 17 kts | 90° |
| 2026-05-07 09:51 | 33.64544 | -84.43115 | 1013 ft | 15 kts | 89° |
| 2026-05-07 09:52 | 33.64545 | -84.42997 | 1013 ft | 14 kts | 89° |
| 2026-05-07 09:52 | 33.64545 | -84.42889 | 1013 ft | 12 kts | 91° |
| 2026-05-07 09:52 | 33.64544 | -84.42791 | 1013 ft | 13 kts | 91° |
| 2026-05-07 09:52 | 33.64543 | -84.42711 | 1012 ft | 16 kts | 90° |
| 2026-05-07 09:53 | 33.64542 | -84.42557 | 1012 ft | 21 kts | 90° |
| 2026-05-07 09:53 | 33.64543 | -84.42386 | 1012 ft | 17 kts | 89° |
| 2026-05-07 09:53 | 33.64538 | -84.42269 | 1012 ft | 13 kts | 111° |
| 2026-05-07 09:53 | 33.64465 | -84.42235 | 1012 ft | 12 kts | 179° |
| 2026-05-07 09:54 | 33.64384 | -84.42233 | 1013 ft | 12 kts | 179° |
| 2026-05-07 09:54 | 33.64299 | -84.42236 | 1013 ft | 12 kts | 185° |
| 2026-05-07 09:54 | 33.64211 | -84.42240 | 1013 ft | 13 kts | 180° |
| 2026-05-07 09:54 | 33.64117 | -84.42240 | 1012 ft | 14 kts | 180° |
| 2026-05-07 09:55 | 33.64020 | -84.42239 | 1013 ft | 14 kts | 180° |
| 2026-05-07 09:55 | 33.63915 | -84.42237 | 1013 ft | 15 kts | 173° |
| 2026-05-07 09:55 | 33.63863 | -84.42147 | 1013 ft | 12 kts | 96° |
| 2026-05-07 09:55 | 33.63863 | -84.42067 | 1013 ft | 7 kts | 89° |
| 2026-05-07 09:56 | 33.63863 | -84.42055 | 1013 ft | 0 kts | 89° |
| 2026-05-07 09:56 | 33.63863 | -84.42047 | 1013 ft | 0 kts | 89° |